Flight Track Log - Related Links

Times and Time Zones

All times are in EDT time to prevent confusion due to time zone crossing. See the DAL268 flight status page for this flight to view local times or setup timezone preferences in your user account.

Time Position Orientation Groundspeed Altitude Reporting Facility
EDT Latitude Longitude Course Direction KTS MPH feet Rate Location/Type
Wed 09:27:26 PM 40.6310 -73.7830 303° West 115 132  Level FlightAware ADS-B
Wed 09:27:46 PM 40.6380 -73.7980 302° West 138 159 766 Level FlightAware ADS-B
Wed 09:28:13 PM 40.6480 -73.8230 298° West 180 207 600 1,412 Climbing FlightAware ADS-B
Wed 09:28:20 PM 40.6490 -73.8320 278° West 189 217 800 1,556 Climbing FlightAware ADS-B
Wed 09:28:40 PM 40.6420 -73.8540 247° West 200 230 1,300 1,448 Climbing FlightAware ADS-B
Wed 09:28:49 PM 40.6370 -73.8610 227° Southwest 202 232 1,500 1,429 Climbing FlightAware ADS-B
Wed 09:29:01 PM 40.6270 -73.8710 217° Southwest 214 246 1,800 1,500 Climbing FlightAware ADS-B
Wed 09:29:09 PM 40.6200 -73.8760 208° Southwest 220 253 2,000 1,500 Climbing FlightAware ADS-B
Wed 09:29:17 PM 40.6130 -73.8790 198° South 225 259 2,200 1,500 Climbing FlightAware ADS-B
Wed 09:29:21 PM 40.6080 -73.8800 189° South 231 266 2,300 500 Climbing FlightAware ADS-B
Wed 09:29:29 PM 40.6010 -73.8800 180° South 241 277 2,300 400 Level FlightAware ADS-B
Wed 09:29:36 PM 40.5910 -73.8770 167° South 254 292 2,400 1,059 Climbing FlightAware ADS-B
Wed 09:29:46 PM 40.5800 -73.8710 157° South 265 305 2,600 857 Climbing FlightAware ADS-B
Wed 09:29:57 PM 40.5700 -73.8590 138° Southeast 276 318 2,700 632 Climbing FlightAware ADS-B
Wed 09:30:05 PM 40.5630 -73.8480 130° Southeast 284 327 2,800 1,200 Climbing FlightAware ADS-B
Wed 09:30:17 PM 40.5570 -73.8290 113° Southeast 288 331 3,100 1,800 Climbing FlightAware ADS-B
Wed 09:30:25 PM 40.5540 -73.8150 106° East 290 334 3,400 2,118 Climbing FlightAware ADS-B
Wed 09:30:34 PM 40.5520 -73.7990 99° East 295 339 3,700 2,053 Climbing FlightAware ADS-B
Wed 09:31:03 PM 40.5550 -73.7470 86° East 305 351 4,700 2,170 Climbing FlightAware ADS-B
Wed 09:31:21 PM 40.5600 -73.7140 79° East 311 358 5,400 2,615 Climbing FlightAware ADS-B
Wed 09:31:42 PM 40.5650 -73.6750 80° East 311 358 6,400 2,400 Climbing FlightAware ADS-B
Wed 09:32:06 PM 40.5700 -73.6300 82° East 323 372 7,200 2,250 Climbing FlightAware ADS-B
Wed 09:32:14 PM 40.5700 -73.6120 90° East 327 376 7,600 2,550 Climbing FlightAware ADS-B
Wed 09:32:46 PM 40.5690 -73.5530 91° East 331 381 8,900 2,339 Climbing FlightAware ADS-B
Wed 09:33:13 PM 40.5660 -73.4940 94° East 339 390 9,900 1,781 Climbing FlightAware ADS-B
Wed 09:33:50 PM 40.5640 -73.4150 92° East 366 421 10,800 1,200 Climbing FlightAware ADS-B
Wed 09:34:23 PM 40.5620 -73.3420 92° East 396 456 11,300 1,108 Climbing FlightAware ADS-B
Wed 09:34:55 PM 40.5600 -73.2580 92° East 423 487 12,000 1,565 Climbing FlightAware ADS-B
Wed 09:35:32 PM 40.5580 -73.1630 92° East 437 503 13,100 1,946 Climbing FlightAware ADS-B
Wed 09:36:09 PM 40.5560 -73.0610 91° East 448 516 14,400 2,028 Climbing FlightAware ADS-B
Wed 09:36:43 PM 40.5650 -72.9710 82° East 448 516 15,500 2,029 Climbing FlightAware ADS-B
Wed 09:37:17 PM 40.5880 -72.8810 71° East 451 519 16,700 2,000 Climbing FlightAware ADS-B
Wed 09:37:52 PM 40.6110 -72.7900 72° East 456 525 17,800 1,784 Climbing FlightAware ADS-B
Wed 09:38:31 PM 40.6370 -72.6890 71° East 466 536 18,900 1,667 Climbing FlightAware ADS-B
Wed 09:39:04 PM 40.6610 -72.5950 71° East 473 544 19,800 1,588 Climbing FlightAware ADS-B
Wed 09:39:39 PM 40.6850 -72.5000 72° East 479 551 20,700 1,478 Climbing FlightAware ADS-B
Wed 09:40:13 PM 40.7080 -72.4050 72° East 486 559 21,500 1,478 Climbing FlightAware ADS-B
Wed 09:40:48 PM 40.7330 -72.3040 72° East 492 566 22,400 1,521 Climbing FlightAware ADS-B
Wed 09:41:24 PM 40.7590 -72.2010 72° East 498 573 23,300 1,343 Climbing FlightAware ADS-B
Wed 09:41:55 PM 40.7810 -72.1120 72° East 503 579 23,900 1,268 Climbing FlightAware ADS-B
Wed 09:42:35 PM 40.8100 -71.9950 72° East 510 587 24,800 1,167 Climbing FlightAware ADS-B
Wed 09:43:07 PM 40.8330 -71.9030 72° East 516 594 25,300 1,091 Climbing FlightAware ADS-B
Wed 09:43:41 PM 40.8590 -71.7950 72° East 520 598 26,000 592 Climbing FlightAware ADS-B
Wed 09:44:18 PM 40.8830 -71.7000 71° East 520 598 26,000  Level FlightAware ADS-B
Wed 09:44:54 PM 40.9050 -71.6080 72° East 520 598 26,000  Level FlightAware ADS-B
Wed 09:45:30 PM 40.9280 -71.5150 72° East 520 598 26,000  Level FlightAware ADS-B
Wed 09:46:06 PM 40.9510 -71.4220 72° East 520 598 26,000 2,327 Level FlightAware ADS-B
Wed 09:46:28 PM 41.0220 -71.3170 48° Northeast 29,000 3,677 Climbing FlightAware ADS-B
Wed 09:47:08 PM 41.0840 -71.2190 50° Northeast 510 587 29,800 1,200 Climbing FlightAware ADS-B
Wed 09:47:38 PM 41.1310 -71.1460 49° Northeast 509 586 30,400 1,029 Climbing FlightAware ADS-B
Wed 09:48:18 PM 41.1880 -71.0560 50° Northeast 510 587 31,000 480 Climbing FlightAware ADS-B
Wed 09:48:53 PM 41.2440 -70.9700 49° Northeast 510 587 31,000  Level FlightAware ADS-B
Wed 09:49:23 PM 41.2930 -70.8920 50° Northeast 509 586 31,000  Level FlightAware ADS-B
Wed 09:50:00 PM 41.3380 -70.8200 50° Northeast 509 586 31,000  Level FlightAware ADS-B
Wed 09:50:45 PM 41.4100 -70.7070 50° Northeast 509 586 31,000  Level FlightAware ADS-B
Wed 09:51:35 PM 41.4870 -70.5840 50° Northeast 511 588 31,000  Level FlightAware ADS-B
Wed 09:52:11 PM 41.5340 -70.5100 50° Northeast 511 588 31,000  Level FlightAware ADS-B
Wed 09:52:43 PM 41.5880 -70.4240 50° Northeast 513 590 31,000  Level FlightAware ADS-B
Wed 09:53:20 PM 41.6360 -70.3470 50° Northeast 513 590 31,000  Level FlightAware ADS-B
Wed 09:53:25 PM 41.6668 -70.2961 51° Northeast 516 594 31,000  Level FlightAware ADS-B
Wed 09:53:56 PM 41.7030 -70.2380 50° Northeast 513 590 31,000  Level FlightAware ADS-B
Wed 09:54:28 PM 41.7550 -70.1510 51° Northeast 516 594 31,000  Level FlightAware ADS-B
Wed 09:55:03 PM 41.8130 -70.0560 51° Northeast 516 594 31,000  Level FlightAware ADS-B
Wed 09:55:21 PM 41.8378 -70.0144 51° Northeast 516 594 31,000  Level FlightAware ADS-B
Wed 09:56:30 PM 41.9443 -69.8357 51° Northeast 517 595 31,000  Level FlightAware ADS-B
Wed 09:57:00 PM 41.9888 -69.7603 51° Northeast 517 595 31,000  Level FlightAware ADS-B
Wed 09:57:36 PM 42.0352 -69.6818 52° Northeast 518 596 31,000  Level FlightAware ADS-B
Wed 09:58:12 PM 42.0930 -69.5830 52° Northeast 518 596 31,000  Level FlightAware ADS-B
Wed 09:58:22 PM 42.1099 -69.5551 51° Northeast 518 596 31,000  Level FlightAware ADS-B
Wed 09:58:52 PM 42.1540 -69.4800 52° Northeast 519 597 31,000  Level FlightAware ADS-B
Wed 09:59:01 PM 42.1690 -69.4548 51° Northeast 519 597 31,000  Level FlightAware ADS-B
Wed 09:59:33 PM 42.2140 -69.3782 52° Northeast 519 597 31,000  Level FlightAware ADS-B
Wed 10:00:12 PM 42.2810 -69.2634 52° Northeast 520 598 31,000  Level FlightAware ADS-B
Wed 10:00:44 PM 42.3203 -69.1960 52° Northeast 520 598 31,000  Level FlightAware ADS-B
Wed 10:01:21 PM 42.3766 -69.0997 52° Northeast 520 598 31,000  Level FlightAware ADS-B
Wed 10:02:16 PM 42.4647 -68.9476 52° Northeast 520 598 31,000  Level FlightAware ADS-B
Wed 10:03:08 PM 42.5340 -68.8270 52° Northeast 520 598 31,000  Level FlightAware ADS-B
Wed 10:03:55 PM 42.5890 -68.7360 51° Northeast 520 598 31,000  Level FlightAware ADS-B
Wed 10:04:31 PM 42.6350 -68.6580 51° Northeast 520 598 31,000  Level FlightAware ADS-B
Wed 10:04:46 PM 42.6881 -68.5585 54° Northeast 521 600 31,000  Level FlightAware ADS-B
Wed 10:05:45 PM 42.7748 -68.4058 52° Northeast 521 600 31,000  Level FlightAware ADS-B
Wed 10:06:20 PM 42.7750 -68.4220 271° West 520 598 31,000  Level FlightAware ADS-B
Wed 10:06:40 PM 42.8551 -68.2632 55° Northeast 522 601 31,000  Level FlightAware ADS-B
Wed 10:07:10 PM 42.8973 -68.1881 52° Northeast 522 601 31,000  Level FlightAware ADS-B
Wed 10:07:50 PM 42.9577 -68.0802 53° Northeast 522 601 31,000  Level FlightAware ADS-B
Wed 10:08:37 PM 43.0247 -67.9608 52° Northeast 523 602 31,000  Level FlightAware ADS-B
Wed 10:09:15 PM 43.0834 -67.8558 53° Northeast 524 603 31,000  Level FlightAware ADS-B
Wed 10:09:48 PM 43.1315 -67.7693 53° Northeast 523 602 31,000  Level FlightAware ADS-B
Wed 10:10:18 PM 43.1757 -67.6896 53° Northeast 522 601 31,000  Level FlightAware ADS-B
Wed 10:10:52 PM 43.2216 -67.6059 53° Northeast 523 602 31,000  Level FlightAware ADS-B
Wed 10:11:29 PM 43.2789 -67.5010 53° Northeast 524 603 31,000  Level FlightAware ADS-B
Wed 10:12:20 PM 43.3505 -67.3701 53° Northeast 524 603 31,000  Level FlightAware ADS-B
Wed 10:12:56 PM 43.3970 -67.2850 53° Northeast 518 596 31,000  Level FlightAware ADS-B
Wed 10:13:00 PM 43.4102 -67.2604 53° Northeast 524 603 31,000  Level FlightAware ADS-B
Wed 10:13:31 PM 43.4550 -67.1782 53° Northeast 524 603 31,000  Level FlightAware ADS-B
Wed 10:14:01 PM 43.4958 -67.1033 53° Northeast 523 602 31,000  Level FlightAware ADS-B
Wed 10:14:36 PM 43.5498 -67.0034 53° Northeast 523 602 31,000  Level FlightAware ADS-B
Wed 10:15:12 PM 43.5940 -66.9210 53° Northeast 525 604 31,000  Level FlightAware ADS-B
Wed 10:15:30 PM 43.6275 -66.8566 54° Northeast 525 604 31,000  Level FlightAware ADS-B
Wed 10:16:01 PM 43.6713 -66.7725 54° Northeast 526 605 31,000  Level FlightAware ADS-B
Wed 10:16:31 PM 43.7141 -66.6910 54° Northeast 526 605 31,000  Level FlightAware ADS-B
Wed 10:17:02 PM 43.7558 -66.6113 54° Northeast 528 608 31,000  Level FlightAware ADS-B
Wed 10:17:32 PM 43.7986 -66.5296 54° Northeast 530 610 31,000  Level FlightAware ADS-B
Wed 10:18:07 PM 43.8420 -66.4460 54° Northeast 531 611 31,000  Level FlightAware ADS-B
Wed 10:18:11 PM 43.8579 -66.4161 54° Northeast 532 612 31,000  Level FlightAware ADS-B
Wed 10:18:43 PM 43.8998 -66.3356 54° Northeast 532 612 31,000  Level FlightAware ADS-B
Wed 10:19:17 PM 43.9420 -66.2530 55° Northeast 533 613 31,000  Level FlightAware ADS-B
Wed 10:19:32 PM 43.9742 -66.1917 54° Northeast 533 613 31,000  Level FlightAware ADS-B
Wed 10:20:04 PM 44.0176 -66.1069 55° Northeast 533 613 31,000  Level FlightAware ADS-B
Wed 10:20:45 PM 44.0775 -65.9888 55° Northeast 535 616 31,000  Level FlightAware ADS-B
Wed 10:21:15 PM 44.1158 -65.9133 55° Northeast 536 617 31,000  Level FlightAware ADS-B
Wed 10:21:49 PM 44.1630 -65.8195 55° Northeast 536 617 31,000  Level FlightAware ADS-B
Wed 10:22:20 PM 44.2125 -65.7214 55° Northeast 537 618 31,000  Level FlightAware ADS-B
Wed 10:22:54 PM 44.2590 -65.6290 55° Northeast 537 618 31,000  Level FlightAware ADS-B
Wed 10:23:24 PM 44.3043 -65.5389 55° Northeast 537 618 31,000  Level FlightAware ADS-B
Wed 10:23:55 PM 44.3367 -65.4738 55° Northeast 537 618 31,000  Level FlightAware ADS-B
Wed 10:24:25 PM 44.3915 -65.3647 55° Northeast 537 618 31,000  Level FlightAware ADS-B
Wed 10:25:05 PM 44.4476 -65.2522 55° Northeast 538 619 31,000  Level FlightAware ADS-B
Wed 10:25:46 PM 44.5072 -65.1329 55° Northeast 540 621 31,000  Level FlightAware ADS-B
Wed 10:26:16 PM 44.5455 -65.0558 55° Northeast 540 621 31,000  Level FlightAware ADS-B
Wed 10:26:48 PM 44.5935 -64.9588 55° Northeast 540 621 31,000  Level FlightAware ADS-B
Wed 10:27:18 PM 44.6380 -64.8686 55° Northeast 540 621 31,000  Level FlightAware ADS-B
Wed 10:27:58 PM 44.6868 -64.7692 55° Northeast 540 621 31,000  Level FlightAware ADS-B
Wed 10:28:29 PM 44.7227 -64.6964 55° Northeast 541 623 31,000  Level FlightAware ADS-B
Wed 10:29:04 PM 44.7872 -64.5646 55° Northeast 541 623 31,000  Level FlightAware ADS-B
Wed 10:29:55 PM 44.8520 -64.4320 55° Northeast 542 624 31,000  Level FlightAware ADS-B
Wed 10:30:08 PM 44.8787 -64.3761 56° Northeast 542 624 31,000  Level FlightAware ADS-B
Wed 10:30:38 PM 44.9208 -64.2890 56° Northeast 543 625 31,000  Level FlightAware ADS-B
Wed 10:31:13 PM 44.9598 -64.2079 56° Northeast 542 624 31,000  Level FlightAware ADS-B
Wed 10:32:20 PM 45.0570 -64.0060 56° Northeast 543 625 31,000  Level FlightAware ADS-B
Wed 10:32:39 PM 45.0843 -63.9482 56° Northeast 543 625 31,000  Level FlightAware ADS-B
Wed 10:33:21 PM 45.1497 -63.8109 56° Northeast 544 626 31,000  Level FlightAware ADS-B
Wed 10:34:05 PM 45.2030 -63.6980 56° Northeast 543 625 31,000  Level FlightAware ADS-B
Wed 10:34:08 PM 45.2150 -63.6728 56° Northeast 543 625 31,000  Level FlightAware ADS-B
Wed 10:34:40 PM 45.2490 -63.6000 56° Northeast 543 625 31,000  Level FlightAware ADS-B
Wed 10:34:47 PM 45.2646 -63.5672 56° Northeast 542 624 31,000  Level FlightAware ADS-B
Wed 10:35:20 PM 45.3080 -63.4740 56° Northeast 542 624 31,000  Level FlightAware ADS-B
Wed 10:35:50 PM 45.3500 -63.3850 56° Northeast 541 623 31,000  Level FlightAware ADS-B
Wed 10:36:25 PM 45.3980 -63.2820 56° Northeast 540 621 31,000  Level FlightAware ADS-B
Wed 10:37:00 PM 45.4460 -63.1790 56° Northeast 540 621 31,000  Level FlightAware ADS-B
Wed 10:37:40 PM 45.4980 -63.0670 56° Northeast 539 620 31,000  Level FlightAware ADS-B
Wed 10:38:17 PM 45.5410 -62.9740 57° Northeast 539 620 31,000  Level FlightAware ADS-B
Wed 10:38:53 PM 45.5820 -62.8820 57° Northeast 539 620 31,000  Level FlightAware ADS-B
Wed 10:39:30 PM 45.6250 -62.7880 57° Northeast 539 620 31,000  Level FlightAware ADS-B
Wed 10:40:06 PM 45.6660 -62.6970 57° Northeast 539 620 31,000  Level FlightAware ADS-B
Wed 10:40:43 PM 45.7090 -62.6020 57° Northeast 539 620 31,000  Level FlightAware ADS-B
Wed 10:41:20 PM 45.7520 -62.5080 57° Northeast 539 620 31,000  Level FlightAware ADS-B
Wed 10:41:56 PM 45.7930 -62.4160 57° Northeast 539 620 31,000  Level FlightAware ADS-B
Wed 10:42:32 PM 45.8350 -62.3250 56° Northeast 539 620 31,000  Level FlightAware ADS-B
Wed 10:43:08 PM 45.8760 -62.2330 57° Northeast 539 620 31,000  Level FlightAware ADS-B
Wed 10:43:44 PM 45.9950 -61.9860 55° Northeast 539 620 31,000  Level FlightAware ADS-B
Wed 10:44:16 PM 46.0440 -61.8780 57° Northeast 538 619 31,000  Level FlightAware ADS-B
Wed 10:44:52 PM 46.0930 -61.7680 57° Northeast 535 616 31,000  Level FlightAware ADS-B
Wed 10:45:28 PM 46.1410 -61.6590 58° Northeast 535 616 31,000  Level FlightAware ADS-B
Wed 10:46:04 PM 46.1880 -61.5520 58° Northeast 537 618 31,000  Level FlightAware ADS-B
Wed 10:46:36 PM 46.2320 -61.4530 57° Northeast 537 618 31,000  Level FlightAware ADS-B
Wed 10:47:12 PM 46.2800 -61.3430 58° Northeast 537 618 31,000  Level FlightAware ADS-B
Wed 10:47:48 PM 46.3270 -61.2360 58° Northeast 539 620 31,000  Level FlightAware ADS-B
Wed 10:48:18 PM 46.3670 -61.1440 58° Northeast 542 624 31,000  Level FlightAware ADS-B
Wed 10:48:58 PM 46.4200 -61.0200 58° Northeast 544 626 31,000  Level FlightAware ADS-B
Wed 10:49:34 PM 46.4680 -60.9090 58° Northeast 546 628 31,000  Level FlightAware ADS-B
Wed 10:50:06 PM 46.5100 -60.8090 59° Northeast 544 626 31,000  Level FlightAware ADS-B
Wed 10:50:42 PM 46.5590 -60.6950 58° Northeast 542 624 31,000  Level FlightAware ADS-B
Wed 10:51:18 PM 46.6060 -60.5830 59° Northeast 544 626 31,000  Level FlightAware ADS-B
Wed 10:51:50 PM 46.6470 -60.4850 59° Northeast 544 626 31,000  Level FlightAware ADS-B
Wed 10:52:28 PM 46.6970 -60.3640 59° Northeast 547 629 31,000  Level FlightAware ADS-B
Wed 10:53:04 PM 46.7440 -60.2520 58° Northeast 544 626 31,000  Level FlightAware ADS-B
Wed 10:53:36 PM 46.7850 -60.1520 59° Northeast 541 623 31,000  Level FlightAware ADS-B
Wed 10:54:12 PM 46.8330 -60.0380 58° Northeast 544 626 31,000  Level FlightAware ADS-B
Wed 10:54:48 PM 46.8790 -59.9290 58° Northeast 546 628 31,000  Level FlightAware ADS-B
Wed 10:55:20 PM 46.9210 -59.8260 59° Northeast 548 631 31,000  Level FlightAware ADS-B
Wed 10:55:58 PM 46.9720 -59.7040 58° Northeast 549 632 31,000  Level FlightAware ADS-B
Wed 10:56:32 PM 47.0160 -59.5960 59° Northeast 550 633 31,000  Level FlightAware ADS-B
Wed 10:57:08 PM 47.0630 -59.4820 59° Northeast 549 632 31,000  Level FlightAware ADS-B
Wed 10:57:40 PM 47.1050 -59.3780 59° Northeast 549 632 31,000  Level FlightAware ADS-B
Wed 10:58:18 PM 47.1500 -59.2680 59° Northeast 550 633 31,000  Level FlightAware ADS-B
Wed 10:58:49 PM 47.1930 -59.1580 60° Northeast 551 634 31,000  Level FlightAware ADS-B
Wed 10:59:43 PM 47.2590 -58.9950 59° Northeast 552 635 31,000  Level FlightAware ADS-B
Wed 11:00:20 PM 47.3000 -58.8930 59° Northeast 552 635 31,000  Level FlightAware ADS-B
Wed 11:00:56 PM 47.3400 -58.7940 59° Northeast 552 635 31,000  Level FlightAware ADS-B
Wed 11:01:32 PM 47.3810 -58.6960 58° Northeast 552 635 31,000  Level FlightAware ADS-B
Wed 11:02:07 PM 47.4450 -58.5210 62° Northeast 542 624 31,000  Level FlightAware ADS-B
Wed 11:02:42 PM 47.4890 -58.4100 60° Northeast 542 624 31,000  Level FlightAware ADS-B
Wed 11:03:22 PM 47.5360 -58.2890 60° Northeast 541 623 31,000  Level FlightAware ADS-B
Wed 11:04:03 PM 47.5810 -58.1750 60° Northeast 541 623 31,000  Level FlightAware ADS-B
Wed 11:04:37 PM 47.6300 -58.0480 60° Northeast 541 623 31,000  Level FlightAware ADS-B
Wed 11:05:17 PM 47.6820 -57.9120 60° Northeast 541 623 31,000  Level FlightAware ADS-B
Wed 11:06:07 PM 47.7430 -57.7540 60° Northeast 540 621 31,000  Level FlightAware ADS-B
Wed 11:06:42 PM 47.7870 -57.6380 61° Northeast 539 620 31,000  Level FlightAware ADS-B
Wed 11:07:22 PM 47.8370 -57.5070 60° Northeast 539 620 31,000  Level FlightAware ADS-B
Wed 11:08:02 PM 47.8790 -57.3800 64° Northeast 541 623 31,000  Level FlightAware ADS-B
Wed 11:08:37 PM 47.9170 -57.2630 64° Northeast 541 623 31,000  Level FlightAware ADS-B
Wed 11:09:17 PM 47.9620 -57.1240 64° Northeast 542 624 31,000  Level FlightAware ADS-B
Wed 11:09:47 PM 47.9950 -57.0230 64° Northeast 541 623 31,000  Level FlightAware ADS-B
Wed 11:10:22 PM 48.0330 -56.9100 63° Northeast 541 623 31,000  Level FlightAware ADS-B
Wed 11:11:02 PM 48.0780 -56.7720 64° Northeast 539 620 31,000  Level FlightAware ADS-B
Wed 11:11:32 PM 48.1110 -56.6700 64° Northeast 537 618 31,000  Level FlightAware ADS-B
Wed 11:12:08 PM 48.1480 -56.5530 65° Northeast 534 615 31,000  Level FlightAware ADS-B
Wed 11:12:47 PM 48.1880 -56.4280 64° Northeast 532 612 31,000  Level FlightAware ADS-B
Wed 11:13:17 PM 48.2230 -56.3200 64° Northeast 530 610 31,000  Level FlightAware ADS-B
Wed 11:13:57 PM 48.2630 -56.1930 65° Northeast 528 608 31,000  Level FlightAware ADS-B
Wed 11:14:32 PM 48.3000 -56.0750 65° Northeast 527 606 31,000  Level FlightAware ADS-B
Wed 11:15:02 PM 48.3320 -55.9720 65° Northeast 526 605 31,000  Level FlightAware ADS-B
Wed 11:15:42 PM 48.3730 -55.8400 65° Northeast 525 604 31,000  Level FlightAware ADS-B
Wed 11:16:17 PM 48.4080 -55.7270 65° Northeast 526 605 31,000  Level FlightAware ADS-B
Wed 11:16:52 PM 48.4440 -55.6090 65° Northeast 527 606 31,000  Level FlightAware ADS-B
Wed 11:17:32 PM 48.4850 -55.4770 65° Northeast 529 609 31,000  Level FlightAware ADS-B
Wed 11:18:07 PM 48.5210 -55.3590 65° Northeast 528 608 31,000  Level FlightAware ADS-B
Wed 11:18:42 PM 48.5560 -55.2430 65° Northeast 528 608 31,000  Level FlightAware ADS-B
Wed 11:19:17 PM 48.5930 -55.1220 65° Northeast 528 608 31,000  Level FlightAware ADS-B
Wed 11:19:52 PM 48.6280 -55.0070 65° Northeast 527 606 31,000  Level FlightAware ADS-B
Wed 11:20:27 PM 48.6630 -54.8910 65° Northeast 528 608 31,000  Level FlightAware ADS-B
Wed 11:21:02 PM 48.6990 -54.7700 66° East 528 608 31,000  Level FlightAware ADS-B
Wed 11:21:37 PM 48.7340 -54.6530 66° East 526 605 31,000  Level FlightAware ADS-B
Wed 11:22:12 PM 48.7680 -54.5360 66° East 523 602 31,000 86 Level FlightAware ADS-B
Wed 11:22:47 PM 48.8030 -54.4180 66° East 525 604 31,100 686 Climbing FlightAware ADS-B
Wed 11:23:22 PM 48.8370 -54.3020 66° East 525 604 31,800 771 Climbing FlightAware ADS-B
Wed 11:23:57 PM 48.8710 -54.1820 67° East 525 604 32,000 171 Climbing FlightAware ADS-B
Wed 11:24:32 PM 48.9050 -54.0680 66° East 522 601 32,000  Level FlightAware ADS-B
Wed 11:25:07 PM 48.9390 -53.9480 67° East 520 598 32,000  Level FlightAware ADS-B
Wed 11:25:42 PM 48.9730 -53.8300 66° East 520 598 32,000  Level FlightAware ADS-B
Wed 11:26:17 PM 49.0060 -53.7150 66° East 520 598 32,000  Level FlightAware ADS-B
Wed 11:26:52 PM 49.0400 -53.5950 67° East 520 598 32,000  Level FlightAware ADS-B
Wed 11:27:27 PM 49.0730 -53.4800 66° East 519 597 32,000  Level FlightAware ADS-B
Wed 11:28:02 PM 49.1070 -53.3610 66° East 521 600 32,000  Level FlightAware ADS-B
Wed 11:28:37 PM 49.1400 -53.2440 67° East 522 601 32,000  Level FlightAware ADS-B
Wed 11:29:12 PM 49.1740 -53.1260 66° East 523 602 32,000  Level FlightAware ADS-B
Wed 11:29:47 PM 49.2050 -53.0120 67° East 523 602 32,000  Level FlightAware ADS-B
Wed 11:30:27 PM 49.2440 -52.8720 67° East 522 601 32,000  Level FlightAware ADS-B
Wed 11:31:04 PM 49.2800 -52.7400 67° East 522 601 32,000  Level FlightAware ADS-B
Wed 11:31:42 PM 49.3130 -52.6190 67° East 521 600 32,000  Level FlightAware ADS-B
Wed 11:32:14 PM 49.3440 -52.5050 67° East 521 600 32,000  Level FlightAware ADS-B
Wed 11:32:52 PM 49.3770 -52.3850 67° East 521 600 32,000  Level FlightAware ADS-B
Wed 11:33:28 PM 49.4060 -52.2810 67° East 521 600 32,000  Level FlightAware ADS-B
Wed 11:34:04 PM 49.4350 -52.1760 67° East 521 600 32,000  Level FlightAware ADS-B
Wed 11:34:41 PM 49.4640 -52.0690 67° East 521 600 32,000  Level FlightAware ADS-B
Wed 11:35:14 PM 49.5080 -51.8890 69° East 520 598 32,000  Level FlightAware ADS-B
Wed 11:35:54 PM 49.5440 -51.7510 68° East 520 598 32,000  Level FlightAware ADS-B
Wed 11:36:31 PM 49.5730 -51.6430 67° East 520 598 32,000  Level FlightAware ADS-B
Wed 11:37:07 PM 49.6000 -51.5370 69° East 520 598 32,000  Level FlightAware ADS-B
Wed 11:37:43 PM 49.6280 -51.4320 68° East 520 598 32,000  Level FlightAware ADS-B
Wed 11:38:19 PM 49.6550 -51.3270 68° East 520 598 32,000  Level FlightAware ADS-B
Wed 11:38:55 PM 49.6830 -51.2210 68° East 520 598 32,000  Level FlightAware ADS-B
Wed 11:39:31 PM 49.7100 -51.1160 68° East 520 598 32,000  Level FlightAware ADS-B
Wed 11:40:07 PM 49.7380 -51.0100 68° East 520 598 32,000  Level FlightAware ADS-B
Wed 11:40:41 PM 49.7640 -50.9100 68° East 520 598 32,000  Level FlightAware ADS-B
Wed 11:41:17 PM 49.7910 -50.8040 68° East 520 598 32,000  Level FlightAware ADS-B
Wed 11:41:53 PM 49.8190 -50.6990 68° East 520 598 32,000  Level FlightAware ADS-B
Wed 11:42:29 PM 49.8470 -50.5930 68° East 520 598 32,000  Level FlightAware ADS-B
Wed 11:43:06 PM 49.8750 -50.4840 68° East 520 598 32,000  Level FlightAware ADS-B
Wed 11:43:42 PM 49.9020 -50.3780 68° East 520 598 32,000  Level FlightAware ADS-B
Wed 11:44:18 PM 49.9300 -50.2720 68° East 520 598 32,000  Level FlightAware ADS-B
Wed 11:44:55 PM 49.9580 -50.1630 68° East 520 598 32,000  Level FlightAware ADS-B
Wed 11:45:31 PM 49.9860 -50.0570 68° East 520 598 32,000  Level FlightAware ADS-B
Wed 11:46:54 PM 50.1167 -49.3833 68° East 530 610 32,000  Level Gander Center
Wed 11:47:54 PM 50.1667 -49.1667 69° East 530 610 32,000  Level Gander Center
Wed 11:48:00 PM 50.0000 -50.0000 69° East 539 620 32,000  Level ETMS Enhanced Traffic Management System
Wed 11:48:54 PM 50.2333 -48.9333 66° East 530 610 32,000  Level Gander Center
Wed 11:49:54 PM 50.3000 -48.7500 60° Northeast 530 610 32,000  Level Gander Center
Wed 11:51:07 PM 50.3500 -48.4833 74° East 540 621 32,000  Level Gander Center
Wed 11:52:07 PM 50.3833 -48.2500 77° East 540 621 32,000  Level Gander Center
Wed 11:53:07 PM 50.4500 -48.0333 64° Northeast 550 633 32,000  Level Gander Center
Wed 11:55:00 PM 50.4913 -47.7418 70° East  Level FlightAware Approximate
Thu 12:02:00 AM 50.8396 -46.2066 70° East  Level FlightAware Approximate
Thu 12:03:00 AM 50.8877 -45.9855 71° East  Level FlightAware Approximate
Thu 12:04:00 AM 50.9354 -45.7639 71° East  Level FlightAware Approximate
Thu 12:05:00 AM 50.9826 -45.5418 71° East  Level FlightAware Approximate
Thu 12:06:00 AM 51.0295 -45.3193 71° East  Level FlightAware Approximate
Thu 12:07:00 AM 51.0759 -45.0963 72° East  Level FlightAware Approximate
Thu 12:08:00 AM 51.1219 -44.8729 72° East  Level FlightAware Approximate
Thu 12:09:00 AM 51.1675 -44.6491 72° East  Level FlightAware Approximate
Thu 12:10:00 AM 51.2126 -44.4248 72° East  Level FlightAware Approximate
Thu 12:11:00 AM 51.2573 -44.2001 72° East  Level FlightAware Approximate
Thu 12:12:00 AM 51.3016 -43.9749 72° East  Level FlightAware Approximate
Thu 12:13:00 AM 51.3454 -43.7493 73° East  Level FlightAware Approximate
Thu 12:14:00 AM 51.3889 -43.5233 73° East  Level FlightAware Approximate
Thu 12:15:00 AM 51.4318 -43.2969 73° East  Level FlightAware Approximate
Thu 12:16:00 AM 51.4744 -43.0700 73° East  Level FlightAware Approximate
Thu 12:17:00 AM 51.5165 -42.8427 73° East  Level FlightAware Approximate
Thu 12:18:00 AM 51.5581 -42.6150 74° East  Level FlightAware Approximate
Thu 12:19:00 AM 51.5993 -42.3868 74° East  Level FlightAware Approximate
Thu 12:20:00 AM 51.6401 -42.1583 74° East  Level FlightAware Approximate
Thu 12:21:00 AM 51.6805 -41.9294 74° East  Level FlightAware Approximate
Thu 12:22:00 AM 51.7203 -41.7000 74° East  Level FlightAware Approximate
Thu 12:23:00 AM 51.7598 -41.4702 74° East  Level FlightAware Approximate
Thu 12:24:00 AM 51.7988 -41.2401 75° East  Level FlightAware Approximate
Thu 12:25:00 AM 51.8373 -41.0095 75° East  Level FlightAware Approximate
Thu 12:26:00 AM 51.8754 -40.7786 75° East  Level FlightAware Approximate
Thu 12:27:00 AM 51.9130 -40.5472 75° East  Level FlightAware Approximate
Thu 12:28:00 AM 51.9502 -40.3155 75° East  Level FlightAware Approximate
Thu 12:29:00 AM 51.9869 -40.0834 76° East  Level FlightAware Approximate
Thu 12:30:00 AM 52.0056 -39.8465 87° East  Level FlightAware Approximate
Thu 12:31:00 AM 52.0140 -39.6071 87° East  Level FlightAware Approximate
Thu 12:32:00 AM 52.0219 -39.3675 87° East  Level FlightAware Approximate
Thu 12:32:18 AM 52.0000 -40.0000 86° East 540 621 32,000  Level ETMS Enhanced Traffic Management System
Thu 12:33:00 AM 52.0293 -39.1279 87° East  Level FlightAware Approximate
Thu 12:34:00 AM 52.0362 -38.8882 87° East  Level FlightAware Approximate
Thu 12:35:00 AM 52.0426 -38.6484 87° East  Level FlightAware Approximate
Thu 12:36:00 AM 52.0486 -38.4085 88° East  Level FlightAware Approximate
Thu 12:37:00 AM 52.0540 -38.1686 88° East  Level FlightAware Approximate
Thu 12:38:00 AM 52.0781 -37.5640 88° East 540 621 32,000  Level FlightAware Transoceanic
Thu 12:39:00 AM 52.0831 -37.3200 88° East 540 621 32,000  Level FlightAware Transoceanic
Thu 12:40:00 AM 52.0877 -37.0759 88° East 540 621 32,000  Level FlightAware Transoceanic
Thu 12:41:00 AM 52.0917 -36.8318 89° East 540 621 32,000  Level FlightAware Transoceanic
Thu 12:42:00 AM 52.0953 -36.5876 89° East 540 621 32,000  Level FlightAware Transoceanic
Thu 12:43:00 AM 52.0983 -36.3434 89° East 540 621 32,000  Level FlightAware Transoceanic
Thu 12:44:00 AM 52.1008 -36.0992 89° East 540 621 32,000  Level FlightAware Transoceanic
Thu 12:45:00 AM 52.1028 -35.8550 89° East 540 621 32,000  Level FlightAware Transoceanic
Thu 12:46:00 AM 52.1044 -35.6107 90° East 540 621 32,000  Level FlightAware Transoceanic
Thu 12:47:00 AM 52.1054 -35.3664 90° East 540 621 32,000  Level FlightAware Transoceanic
Thu 12:48:00 AM 52.1059 -35.1221 90° East 540 621 32,000  Level FlightAware Transoceanic
Thu 12:49:00 AM 52.1059 -34.8779 90° East 540 621 32,000  Level FlightAware Transoceanic
Thu 12:50:00 AM 52.1054 -34.6336 90° East 540 621 32,000  Level FlightAware Transoceanic
Thu 12:51:00 AM 52.1044 -34.3893 90° East 540 621 32,000  Level FlightAware Transoceanic
Thu 12:52:00 AM 52.1028 -34.1450 91° East 540 621 32,000  Level FlightAware Transoceanic
Thu 12:53:00 AM 52.1008 -33.9008 91° East 540 621 32,000  Level FlightAware Transoceanic
Thu 12:54:00 AM 52.0983 -33.6566 91° East 540 621 32,000  Level FlightAware Transoceanic
Thu 12:55:00 AM 52.0953 -33.4124 91° East 540 621 32,000  Level FlightAware Transoceanic
Thu 12:56:00 AM 52.0917 -33.1682 91° East 540 621 32,000  Level FlightAware Transoceanic
Thu 12:57:00 AM 52.0877 -32.9241 92° East 540 621 32,000  Level FlightAware Transoceanic
Thu 12:58:00 AM 52.0831 -32.6800 92° East 540 621 32,000  Level FlightAware Transoceanic
Thu 12:59:00 AM 52.0781 -32.4360 92° East 540 621 32,000  Level FlightAware Transoceanic
Thu 01:00:00 AM 52.0726 -32.1921 92° East 540 621 32,000  Level FlightAware Transoceanic
Thu 01:01:00 AM 52.0665 -31.9482 92° East 540 621 32,000  Level FlightAware Transoceanic
Thu 01:02:00 AM 52.0600 -31.7044 93° East 540 621 32,000  Level FlightAware Transoceanic
Thu 01:03:00 AM 52.0529 -31.4606 93° East 540 621 32,000  Level FlightAware Transoceanic
Thu 01:04:00 AM 52.0453 -31.2169 93° East 540 621 32,000  Level FlightAware Transoceanic
Thu 01:05:00 AM 52.0373 -30.9734 93° East 540 621 32,000  Level FlightAware Transoceanic
Thu 01:06:00 AM 52.0287 -30.7299 93° East 540 621 32,000  Level FlightAware Transoceanic
Thu 01:07:00 AM 52.0196 -30.4865 94° East 540 621 32,000  Level FlightAware Transoceanic
Thu 01:08:00 AM 52.0101 -30.2432 94° East 540 621 32,000  Level FlightAware Transoceanic
Thu 01:09:00 AM 52.0002 -30.0039 94° East  Level FlightAware Approximate
Thu 01:10:00 AM 51.9895 -29.7647 94° East  Level FlightAware Approximate
Thu 01:11:00 AM 52.0096 -29.7685 86° East  Level FlightAware Approximate
Thu 01:12:00 AM 52.0190 -29.5291 86° East  Level FlightAware Approximate
Thu 01:12:00 AM 52.0000 -30.0000 86° East 540 621 32,000  Level ETMS Enhanced Traffic Management System
Thu 01:13:00 AM 52.0280 -29.2896 86° East  Level FlightAware Approximate
Thu 01:14:00 AM 52.0364 -29.0517 87° East  Level FlightAware Approximate
Thu 01:15:00 AM 52.0443 -28.8137 87° East  Level FlightAware Approximate
Thu 01:16:00 AM 52.0518 -28.5757 87° East  Level FlightAware Approximate
Thu 01:17:00 AM 52.0588 -28.3376 87° East  Level FlightAware Approximate
Thu 01:18:00 AM 52.0726 -27.8079 88° East 540 621 32,000  Level FlightAware Transoceanic
Thu 01:19:00 AM 52.0781 -27.5640 88° East 540 621 32,000  Level FlightAware Transoceanic
Thu 01:20:00 AM 52.0831 -27.3200 88° East 540 621 32,000  Level FlightAware Transoceanic
Thu 01:21:00 AM 52.0877 -27.0759 88° East 540 621 32,000  Level FlightAware Transoceanic
Thu 01:22:00 AM 52.0917 -26.8318 89° East 540 621 32,000  Level FlightAware Transoceanic
Thu 01:23:00 AM 52.0953 -26.5876 89° East 540 621 32,000  Level FlightAware Transoceanic
Thu 01:24:00 AM 52.0983 -26.3434 89° East 540 621 32,000  Level FlightAware Transoceanic
Thu 01:25:00 AM 52.1008 -26.0992 89° East 540 621 32,000  Level FlightAware Transoceanic
Thu 01:26:00 AM 52.1028 -25.8550 89° East 540 621 32,000  Level FlightAware Transoceanic
Thu 01:27:00 AM 52.1044 -25.6107 90° East 540 621 32,000  Level FlightAware Transoceanic
Thu 01:28:00 AM 52.1054 -25.3664 90° East 540 621 32,000  Level FlightAware Transoceanic
Thu 01:29:00 AM 52.1059 -25.1221 90° East 540 621 32,000  Level FlightAware Transoceanic
Thu 01:30:00 AM 52.1059 -24.8779 90° East 540 621 32,000  Level FlightAware Transoceanic
Thu 01:31:00 AM 52.1054 -24.6336 90° East 540 621 32,000  Level FlightAware Transoceanic
Thu 01:32:00 AM 52.1044 -24.3893 90° East 540 621 32,000  Level FlightAware Transoceanic
Thu 01:33:00 AM 52.1028 -24.1450 91° East 540 621 32,000  Level FlightAware Transoceanic
Thu 01:34:00 AM 52.1008 -23.9008 91° East 540 621 32,000  Level FlightAware Transoceanic
Thu 01:35:00 AM 52.0983 -23.6566 91° East 540 621 32,000  Level FlightAware Transoceanic
Thu 01:36:00 AM 52.0953 -23.4124 91° East 540 621 32,000  Level FlightAware Transoceanic
Thu 01:37:00 AM 52.0917 -23.1682 91° East 540 621 32,000  Level FlightAware Transoceanic
Thu 01:38:00 AM 52.0877 -22.9241 92° East 540 621 32,000  Level FlightAware Transoceanic
Thu 01:39:00 AM 52.0831 -22.6800 92° East 540 621 32,000  Level FlightAware Transoceanic
Thu 01:40:00 AM 52.0781 -22.4360 92° East 540 621 32,000  Level FlightAware Transoceanic
Thu 01:41:00 AM 52.0726 -22.1921 92° East 540 621 32,000  Level FlightAware Transoceanic
Thu 01:42:00 AM 52.0665 -21.9482 92° East 540 621 32,000  Level FlightAware Transoceanic
Thu 01:43:00 AM 52.0600 -21.7044 93° East 540 621 32,000  Level FlightAware Transoceanic
Thu 01:44:00 AM 52.0529 -21.4606 93° East 540 621 32,000  Level FlightAware Transoceanic
Thu 01:45:00 AM 52.0453 -21.2169 93° East 540 621 32,000  Level FlightAware Transoceanic
Thu 01:46:00 AM 52.0373 -20.9734 93° East 540 621 32,000  Level FlightAware Transoceanic
Thu 01:47:00 AM 52.0287 -20.7299 93° East 540 621 32,000  Level FlightAware Transoceanic
Thu 01:48:00 AM 52.0196 -20.4865 94° East 540 621 32,000  Level FlightAware Transoceanic
Thu 01:49:00 AM 52.0101 -20.2432 94° East 540 621 32,000 26 Level FlightAware Transoceanic
Thu 01:50:00 AM 52.0002 -20.0056 94° East  Level FlightAware Approximate
Thu 01:51:00 AM 51.9898 -19.7681 94° East  Level FlightAware Approximate
Thu 01:52:00 AM 52.0084 -19.7735 86° East  Level FlightAware Approximate
Thu 01:53:00 AM 52.0167 -19.5357 87° East  Level FlightAware Approximate
Thu 01:54:00 AM 52.0245 -19.2974 87° East  Level FlightAware Approximate
Thu 01:55:00 AM 52.0319 -19.0590 87° East  Level FlightAware Approximate
Thu 01:56:00 AM 52.0388 -18.8206 87° East  Level FlightAware Approximate
Thu 01:57:00 AM 52.0452 -18.5820 87° East  Level FlightAware Approximate
Thu 01:58:00 AM 52.0511 -18.3434 88° East  Level FlightAware Approximate
Thu 01:59:00 AM 52.0565 -18.1048 88° East  Level FlightAware Approximate
Thu 02:00:00 AM 52.0615 -17.8661 88° East  Level FlightAware Approximate
Thu 02:01:00 AM 52.0660 -17.6273 88° East  Level FlightAware Approximate
Thu 02:02:00 AM 52.0700 -17.3885 88° East  Level FlightAware Approximate
Thu 02:03:00 AM 52.0735 -17.1497 89° East  Level FlightAware Approximate
Thu 02:04:00 AM 52.0765 -16.9108 89° East  Level FlightAware Approximate
Thu 02:05:00 AM 52.0790 -16.6719 89° East  Level FlightAware Approximate
Thu 02:06:00 AM 52.0811 -16.4330 89° East  Level FlightAware Approximate
Thu 02:07:00 AM 52.0827 -16.1940 89° East  Level FlightAware Approximate
Thu 02:08:00 AM 52.0838 -15.9551 89° East  Level FlightAware Approximate
Thu 02:09:00 AM 52.0844 -15.7161 90° East  Level FlightAware Approximate
Thu 02:10:00 AM 52.0845 -15.4771 90° East  Level FlightAware Approximate
Thu 02:11:00 AM 52.0842 -15.2381 90° East  Level FlightAware Approximate
Thu 02:12:00 AM 52.0833 -14.9992 90° East  Level FlightAware Approximate
Thu 02:13:00 AM 52.0827 -14.7602 90° East  Level FlightAware Approximate
Thu 02:14:00 AM 52.0816 -14.5212 90° East  Level FlightAware Approximate
Thu 02:15:00 AM 52.0799 -14.2823 91° East  Level FlightAware Approximate
Thu 02:16:00 AM 52.0779 -14.0434 91° East  Level FlightAware Approximate
Thu 02:17:00 AM 52.0753 -13.8045 91° East  Level FlightAware Approximate
Thu 02:18:00 AM 52.0722 -13.5656 91° East  Level FlightAware Approximate
Thu 02:19:00 AM 52.0687 -13.3268 91° East  Level FlightAware Approximate
Thu 02:20:00 AM 52.0647 -13.0880 91° East  Level FlightAware Approximate
Thu 02:21:00 AM 52.0602 -12.8492 92° East  Level FlightAware Approximate
Thu 02:22:00 AM 52.0552 -12.6105 92° East  Level FlightAware Approximate
Thu 02:23:00 AM 52.0497 -12.3719 92° East  Level FlightAware Approximate
Thu 02:24:00 AM 52.0437 -12.1333 92° East  Level FlightAware Approximate
Thu 02:25:00 AM 52.0373 -11.8952 92° East  Level FlightAware Approximate
Thu 02:26:00 AM 52.0304 -11.6572 93° East  Level FlightAware Approximate
Thu 02:27:00 AM 52.0230 -11.4192 93° East  Level FlightAware Approximate
Thu 02:27:12 AM 51.9780 -11.7530 93° East 516 594 33,000  Level FlightAware ADS-B
Thu 02:27:47 AM 51.9750 -11.6100 92° East 516 594 33,000  Level FlightAware ADS-B
Thu 02:28:27 AM 51.9720 -11.4560 92° East 515 593 33,000  Level FlightAware ADS-B
Thu 02:28:57 AM 51.9690 -11.3400 92° East 514 592 33,000  Level FlightAware ADS-B
Thu 02:29:47 AM 51.9650 -11.1530 92° East 511 588 33,000 150 Level FlightAware ADS-B
Thu 02:30:17 AM 51.9620 -11.0480 93° East 511 588 33,200 507 Climbing FlightAware ADS-B
Thu 02:30:58 AM 51.9590 -10.9020 92° East 512 589 33,600 1,440 Climbing FlightAware ADS-B
Thu 02:31:32 AM 51.9540 -10.7640 93° East 508 585 35,000 1,183 Climbing FlightAware ADS-B
Thu 02:32:09 AM 51.9500 -10.6060 92° East 510 587 35,000  Level FlightAware ADS-B
Thu 02:32:42 AM 51.9460 -10.4860 93° East 510 587 35,000  Level FlightAware ADS-B
Thu 02:33:17 AM 51.9420 -10.3490 93° East 510 587 35,000  Level FlightAware ADS-B
Thu 02:33:52 AM 51.9380 -10.2270 93° East 510 587 35,000  Level FlightAware ADS-B
Thu 02:34:28 AM 51.9330 -10.0760 93° East 510 587 35,000  Level FlightAware ADS-B
Thu 02:35:03 AM 51.9290 -9.9420 93° East 510 587 35,000  Level FlightAware ADS-B
Thu 02:35:38 AM 51.9240 -9.8080 93° East 510 587 35,000  Level FlightAware ADS-B
Thu 02:36:13 AM 51.9190 -9.6720 93° East 511 588 35,000  Level FlightAware ADS-B
Thu 02:36:48 AM 51.9140 -9.5430 94° East 512 589 35,000  Level FlightAware ADS-B
Thu 02:37:23 AM 51.9090 -9.4100 93° East 513 590 35,000  Level FlightAware ADS-B
Thu 02:37:58 AM 51.9040 -9.2750 93° East 510 587 35,000  Level FlightAware ADS-B
Thu 02:38:33 AM 51.8980 -9.1390 94° East 508 585 35,000  Level FlightAware ADS-B
Thu 02:39:08 AM 51.9059 -8.9687 94° East 492 566 35,000  Level FlightAware UK
Thu 02:39:08 AM 51.8930 -9.0090 94° East 507 583 35,000  Level FlightAware ADS-B
Thu 02:39:38 AM 51.9009 -8.8551 94° East 492 566 35,000  Level FlightAware UK
Thu 02:39:43 AM 51.8870 -8.8750 94° East 505 581 35,000  Level FlightAware ADS-B
Thu 02:40:18 AM 51.8810 -8.7450 94° East 503 579 35,000  Level FlightAware ADS-B
Thu 02:40:53 AM 51.8750 -8.6140 94° East 503 579 35,000  Level FlightAware ADS-B
Thu 02:41:29 AM 51.8690 -8.4820 94° East 504 580 35,000  Level FlightAware ADS-B
Thu 02:42:06 AM 51.8610 -8.3340 95° East 505 581 35,000  Level FlightAware ADS-B
Thu 02:42:38 AM 51.8702 -8.1798 95° East 490 564 35,000  Level FlightAware UK
Thu 02:42:38 AM 51.8560 -8.2190 95° East 506 582 35,000  Level FlightAware ADS-B
Thu 02:42:46 AM 51.8637 -8.3808 274° West 505 581 35,000  Level FlightAware ADS-B
Thu 02:43:43 AM 51.8427 -7.9688 95° East 507 583 35,000  Level FlightAware ADS-B
Thu 02:44:16 AM 51.8364 -7.8482 95° East 507 583 35,000  Level FlightAware ADS-B
Thu 02:44:59 AM 51.8300 -7.6900 94° East 516 594 35,000  Level FlightAware ADS-B
Thu 02:45:35 AM 51.8330 -7.5480 88° East 517 595 35,000  Level FlightAware ADS-B
Thu 02:46:08 AM 51.8512 -7.3823 88° East 490 564 35,000  Level FlightAware UK
Thu 02:46:09 AM 51.8360 -7.4130 88° East 517 595 35,000  Level FlightAware ADS-B
Thu 02:46:44 AM 51.8390 -7.2770 88° East 516 594 35,000  Level FlightAware ADS-B
Thu 02:47:16 AM 51.8410 -7.1540 88° East 516 594 35,000  Level FlightAware ADS-B
Thu 02:47:31 AM 51.8409 -7.0985 90° East 512 589 35,000  Level FlightAware ADS-B (EIDW / DUB)
Thu 02:48:02 AM 51.8371 -6.9787 93° East 509 586 35,000  Level FlightAware ADS-B (EIDW / DUB)
Thu 02:48:39 AM 51.8476 -6.8084 93° East 492 566 35,000  Level FlightAware UK
Thu 02:48:48 AM 51.8304 -6.8055 93° East 507 583 35,000  Level FlightAware ADS-B (EGCW)
Thu 02:49:26 AM 51.8268 -6.7184 94° East 507 583 35,000  Level FlightAware ADS-B (EGCW)
Thu 02:50:09 AM 51.8336 -6.4692 94° East 490 564 35,000  Level FlightAware UK
Thu 02:50:17 AM 51.8163 -6.4742 94° East 506 582 35,000  Level FlightAware ADS-B (EGCW)
Thu 02:50:48 AM 51.8100 -6.3510 95° East 506 582 35,000  Level FlightAware ADS-B
Thu 02:51:02 AM 51.8080 -6.2987 93° East 507 583 35,000  Level FlightAware ADS-B (EGCW)
Thu 02:51:39 AM 51.8173 -6.1292 93° East 490 564 35,000  Level FlightAware UK
Thu 02:51:50 AM 51.7997 -6.1183 93° East 508 585 35,000  Level FlightAware ADS-B (EGCW)
Thu 02:52:38 AM 51.7883 -5.9417 96° East 506 582 35,000  Level FlightAware ADS-B (EGCW)
Thu 02:53:09 AM 51.7953 -5.7906 96° East 488 562 35,000  Level FlightAware UK
Thu 02:53:10 AM 51.7800 -5.8170 96° East 507 583 35,000  Level FlightAware ADS-B
Thu 02:53:24 AM 51.7765 -5.7657 96° East 509 586 35,000  Level FlightAware ADS-B (EGDX / DGX)
Thu 02:53:54 AM 51.7691 -5.6532 96° East 510 587 35,000  Level FlightAware ADS-B (EGDX / DGX)
Thu 02:54:26 AM 51.7615 -5.5301 96° East 512 589 35,000  Level FlightAware ADS-B (EGCW)
Thu 02:55:01 AM 51.7555 -5.3974 94° East 512 589 35,000  Level FlightAware ADS-B (EGCW)
Thu 02:55:39 AM 51.7639 -5.2218 94° East 490 564 35,000  Level FlightAware UK
Thu 02:55:53 AM 51.7466 -5.2043 94° East 513 590 35,000  Level FlightAware ADS-B (EGCW)
Thu 02:55:57 AM 51.7590 -5.4722 274° West 514 592 35,000  Level FlightAware ADS-B (EGDX / DGX)
Thu 02:56:27 AM 51.7399 -5.0671 94° East 513 590 35,000  Level FlightAware ADS-B (LSPL)
Thu 02:57:00 AM 51.7334 -4.9412 95° East 513 590 35,000  Level FlightAware ADS-B (LSPL)
Thu 02:57:12 AM 51.7590 -5.4722 275° West 514 592 35,000  Level FlightAware ADS-B (EGDX / DGX)
Thu 02:57:42 AM 51.7273 -4.7892 94° East 521 600 35,000  Level FlightAware ADS-B (EGCW)
Thu 02:58:14 AM 51.7315 -4.6581 87° East 523 602 35,000  Level FlightAware ADS-B (EGCW)
Thu 02:59:04 AM 51.7384 -4.4639 87° East 524 603 35,000  Level FlightAware ADS-B (EGCW)
Thu 02:59:30 AM 51.7415 -4.3604 87° East 525 604 35,000  Level FlightAware ADS-B (EGDX / DGX)
Thu 03:00:01 AM 51.7448 -4.2439 87° East 525 604 35,000  Level FlightAware ADS-B (EGCW)
Thu 03:00:16 AM 51.7465 -4.1853 87° East 526 605 35,000  Level FlightAware ADS-B (EGDX / DGX)
Thu 03:00:47 AM 51.7497 -4.0611 88° East 525 604 35,000  Level FlightAware ADS-B (LSPL)
Thu 03:01:20 AM 51.7528 -3.9316 88° East 527 606 35,000  Level FlightAware ADS-B (EGDX / DGX)
Thu 03:01:55 AM 51.7554 -3.7952 88° East 529 609 35,000  Level FlightAware ADS-B (EGDX / DGX)
Thu 03:02:27 AM 51.7578 -3.6691 88° East 530 610 35,000  Level FlightAware ADS-B (EGDM)
Thu 03:02:38 AM 51.7542 -3.8562 268° West 528 608 35,000  Level FlightAware ADS-B
Thu 03:03:12 AM 51.7604 -3.4932 88° East 530 610 35,000  Level FlightAware ADS-B (EGCW)
Thu 03:03:43 AM 51.7567 -3.3692 93° East 528 608 35,000  Level FlightAware ADS-B (LSPL)
Thu 03:03:49 AM 51.7559 -3.3476 94° East 528 608 35,000  Level FlightAware ADS-B
Thu 03:04:20 AM 51.7511 -3.2246 94° East 529 609 35,000  Level FlightAware ADS-B
Thu 03:04:50 AM 51.7466 -3.1049 93° East 530 610 35,000  Level FlightAware ADS-B
Thu 03:04:52 AM 51.7540 -3.3003 274° West 530 610 35,000  Level FlightAware ADS-B
Thu 03:05:22 AM 51.7416 -2.9784 93° East 530 610 35,000  Level FlightAware ADS-B
Thu 03:05:59 AM 51.7356 -2.8343 94° East 531 611 35,000  Level FlightAware ADS-B
Thu 03:06:06 AM 51.7346 -2.8105 94° East 531 611 35,000  Level FlightAware ADS-B (EGDM)
Thu 03:06:14 AM 51.7361 -2.8463 274° West 531 611 35,000  Level FlightAware ADS-B (EGDX / DGX)
Thu 03:06:23 AM 51.7308 -2.7392 95° East 529 609 35,000  Level FlightAware ADS-B
Thu 03:06:36 AM 51.7265 -2.6905 98° East 527 606 35,000  Level FlightAware ADS-B
Thu 03:06:55 AM 51.7194 -2.6170 99° East 526 605 35,000  Level FlightAware ADS-B
Thu 03:07:07 AM 51.7148 -2.5687 99° East 526 605 35,000  Level FlightAware ADS-B (EGCW)
Thu 03:07:26 AM 51.7079 -2.4969 99° East 525 604 35,000  Level FlightAware ADS-B
Thu 03:07:39 AM 51.7026 -2.4429 99° East 526 605 35,000  Level FlightAware ADS-B (LSPL)
Thu 03:07:57 AM 51.6959 -2.3740 99° East 525 604 35,000  Level FlightAware ADS-B
Thu 03:08:31 AM 51.6829 -2.2427 99° East 526 605 35,000  Level FlightAware ADS-B
Thu 03:08:43 AM 51.6782 -2.1981 100° East 526 605 35,000  Level FlightAware ADS-B (EGDM)
Thu 03:09:04 AM 51.6700 -2.1166 99° East 526 605 35,000  Level FlightAware ADS-B
Thu 03:09:14 AM 51.6667 -2.0850 99° East 527 606 35,000  Level FlightAware ADS-B (EGDM)
Thu 03:09:25 AM 51.6642 -2.0595 99° East 527 606 35,000  Level FlightAware ADS-B
Thu 03:09:35 AM 51.6576 -1.9967 100° East 526 605 35,000  Level FlightAware ADS-B
Thu 03:09:56 AM 51.6492 -1.9172 100° East 527 606 35,000  Level FlightAware ADS-B
Thu 03:10:05 AM 51.6451 -1.8801 100° East 527 606 35,000  Level FlightAware ADS-B
Thu 03:10:27 AM 51.6362 -1.7979 100° East 527 606 35,000  Level FlightAware ADS-B
Thu 03:10:37 AM 51.6319 -1.7593 100° East 528 608 35,000  Level FlightAware ADS-B
Thu 03:11:07 AM 51.6204 -1.6574 100° East 529 609 35,000  Level FlightAware ADS-B
Thu 03:11:37 AM 51.6051 -1.5250 101° East 529 609 35,000  Level FlightAware ADS-B
Thu 03:12:08 AM 51.5908 -1.4069 101° East 529 609 35,000  Level FlightAware ADS-B
Thu 03:12:09 AM 51.5904 -1.4028 99° East 528 608 35,000  Level FlightAware ADS-B
Thu 03:12:20 AM 51.5848 -1.3590 101° East 527 606 35,000  Level FlightAware ADS-B
Thu 03:12:38 AM 51.5764 -1.2907 101° East 528 608 35,000  Level FlightAware ADS-B
Thu 03:12:46 AM 51.5726 -1.2611 102° East 526 605 35,000  Level FlightAware ADS-B (LSPL)
Thu 03:12:56 AM 51.5669 -1.2164 102° East 526 605 35,000  Level FlightAware ADS-B (LSPL)
Thu 03:13:09 AM 51.5614 -1.1728 102° East 527 606 35,000  Level FlightAware ADS-B
Thu 03:13:18 AM 51.5572 -1.1396 101° East 524 603 35,000  Level FlightAware ADS-B (LSPL)
Thu 03:13:26 AM 51.5551 -1.1238 102° East 524 603 35,000  Level FlightAware ADS-B (LSPL)
Thu 03:13:40 AM 51.5463 -1.0562 102° East 525 604 35,000  Level FlightAware ADS-B
Thu 03:13:41 AM 51.5462 -1.0540 94° East 523 602 35,000  Level FlightAware ADS-B (EGDX / DGX)
Thu 03:13:58 AM 51.5376 -0.9863 102° East 524 603 35,000  Level FlightAware ADS-B
Thu 03:14:25 AM 51.5273 -0.8840 99° East 525 604 35,000  Level FlightAware ADS-B
Thu 03:14:29 AM 51.5254 -0.8652 99° East 525 604 35,000  Level FlightAware ADS-B
Thu 03:14:56 AM 51.5157 -0.7648 99° East 525 604 35,000  Level FlightAware ADS-B
Thu 03:15:01 AM 51.5136 -0.7448 99° East 525 604 35,000  Level FlightAware ADS-B
Thu 03:15:26 AM 51.5039 -0.6477 99° East 523 602 35,000  Level FlightAware ADS-B
Thu 03:15:33 AM 51.5011 -0.6208 99° East 523 602 35,000  Level FlightAware ADS-B
Thu 03:15:57 AM 51.4916 -0.5307 100° East 521 600 35,000  Level FlightAware ADS-B (EGHH / BOH)
Thu 03:16:03 AM 51.4889 -0.5053 100° East 522 601 35,000  Level FlightAware ADS-B
Thu 03:16:30 AM 51.4786 -0.4076 100° East 524 603 35,000  Level FlightAware ADS-B
Thu 03:16:35 AM 51.4762 -0.3851 100° East 525 604 35,000  Level FlightAware ADS-B
Thu 03:17:00 AM 51.4657 -0.2889 100° East 529 609 35,000  Level FlightAware ADS-B
Thu 03:17:06 AM 51.4630 -0.2650 100° East 531 611 35,000  Level FlightAware ADS-B
Thu 03:17:32 AM 51.4528 -0.1702 100° East 531 611 35,000  Level FlightAware ADS-B
Thu 03:17:39 AM 51.4494 -0.1390 100° East 532 612 35,000  Level FlightAware ADS-B
Thu 03:18:07 AM 51.4372 -0.0301 100° East 535 616 35,000  Level FlightAware ADS-B
Thu 03:18:09 AM 51.4364 -0.0218 98° East 535 616 35,000  Level FlightAware ADS-B
Thu 03:18:39 AM 51.4237 0.0901 100° East 536 617 35,000  Level FlightAware ADS-B
Thu 03:18:40 AM 51.4227 0.0993 100° East 535 616 35,000  Level FlightAware ADS-B
Thu 03:19:10 AM 51.4091 0.2182 100° East 536 617 35,000  Level FlightAware ADS-B
Thu 03:19:13 AM 51.4091 0.2182 178° South 536 617 35,000  Level FlightAware ADS-B
Thu 03:19:43 AM 51.3943 0.3450 101° East 536 617 35,000  Level FlightAware ADS-B
Thu 03:19:58 AM 51.3874 0.4040 101° East 536 617 35,000  Level FlightAware ADS-B
Thu 03:20:19 AM 51.3780 0.4821 101° East 536 617 35,000  Level FlightAware ADS-B
Thu 03:20:31 AM 51.3720 0.5326 101° East 536 617 35,000  Level FlightAware ADS-B
Thu 03:20:50 AM 51.3676 0.5697 101° East 535 616 35,000  Level FlightAware ADS-B (EGHH / BOH)
Thu 03:21:01 AM 51.3581 0.6496 101° East 535 616 35,000  Level FlightAware ADS-B
Thu 03:21:24 AM 51.3474 0.7382 101° East 535 616 35,000  Level FlightAware ADS-B
Thu 03:21:32 AM 51.3435 0.7705 101° East 535 616 35,000  Level FlightAware ADS-B
Thu 03:21:54 AM 51.3330 0.8561 101° East 535 616 35,000  Level FlightAware ADS-B
Thu 03:22:04 AM 51.3285 0.8939 101° East 535 616 35,000  Level FlightAware ADS-B
Thu 03:22:24 AM 51.3190 0.9721 101° East 534 615 35,000  Level FlightAware ADS-B
Thu 03:22:40 AM 51.3117 1.0322 101° East 534 615 35,000  Level FlightAware ADS-B
Thu 03:22:58 AM 51.3031 1.1024 101° East 535 616 35,000  Level FlightAware ADS-B
Thu 03:23:11 AM 51.2970 1.1528 101° East 535 616 35,000  Level FlightAware ADS-B
Thu 03:23:29 AM 51.2888 1.2178 101° East 536 617 35,000  Level FlightAware ADS-B
Thu 03:24:04 AM 51.2712 1.3590 101° East 536 617 35,000  Level FlightAware ADS-B
Thu 03:24:13 AM 51.2673 1.3920 101° East 538 619 35,000  Level FlightAware ADS-B
Thu 03:24:44 AM 51.2518 1.5144 101° East 537 618 35,000  Level FlightAware ADS-B
Thu 03:25:16 AM 51.2360 1.6315 102° East 538 619 35,000  Level FlightAware ADS-B
Thu 03:25:40 AM 51.2128 1.7236 112° Southeast 535 616 35,000  Level FlightAware ADS-B
Thu 03:26:10 AM 51.1848 1.8216 114° Southeast 533 613 35,000  Level FlightAware ADS-B
Thu 03:26:15 AM 51.1765 1.8501 115° Southeast 534 615 35,000  Level FlightAware ADS-B
Thu 03:26:40 AM 51.1510 1.9397 114° Southeast 533 613 35,000  Level FlightAware ADS-B
Thu 03:27:12 AM 51.1181 2.0502 115° Southeast 532 612 35,000  Level FlightAware ADS-B
Thu 03:27:43 AM 51.0843 2.1622 116° Southeast 532 612 35,000  Level FlightAware ADS-B
Thu 03:27:53 AM 51.0740 2.1970 115° Southeast 532 612 35,000  Level FlightAware ADS-B
Thu 03:28:23 AM 51.0443 2.2953 116° Southeast 533 613 35,000  Level FlightAware ADS-B
Thu 03:29:07 AM 50.9980 2.4510 115° Southeast 532 612 35,000  Level FlightAware ADS-B
Thu 03:29:42 AM 50.9610 2.5740 115° Southeast 532 612 35,000  Level FlightAware ADS-B
Thu 03:30:13 AM 50.9147 2.7275 115° Southeast 490 564 35,000  Level FlightAware UK
Thu 03:30:14 AM 50.9260 2.6890 115° Southeast 534 615 35,000  Level FlightAware ADS-B
Thu 03:30:51 AM 50.8880 2.8180 115° Southeast 535 616 35,000  Level FlightAware ADS-B
Thu 03:31:26 AM 50.8530 2.9340 116° Southeast 535 616 35,000  Level FlightAware ADS-B
Thu 03:31:57 AM 50.8160 3.0550 116° Southeast 537 618 35,000  Level FlightAware ADS-B
Thu 03:32:34 AM 50.7770 3.1820 116° Southeast 538 619 35,000  Level FlightAware ADS-B
Thu 03:33:10 AM 50.7400 3.3020 116° Southeast 539 620 35,000  Level FlightAware ADS-B
Thu 03:33:43 AM 50.7020 3.4210 117° Southeast 539 620 35,000  Level FlightAware ADS-B
Thu 03:34:15 AM 50.6640 3.5410 117° Southeast 540 621 35,000  Level FlightAware ADS-B
Thu 03:34:51 AM 50.6250 3.6610 117° Southeast 539 620 35,000  Level FlightAware ADS-B
Thu 03:35:28 AM 50.5830 3.7920 117° Southeast 536 617 35,000  Level FlightAware ADS-B
Thu 03:36:13 AM 50.5330 3.9430 117° Southeast 533 613 35,000  Level FlightAware ADS-B
Thu 03:36:45 AM 50.4950 4.0590 117° Southeast 530 610 35,000  Level FlightAware ADS-B
Thu 03:37:24 AM 50.4520 4.1920 117° Southeast 528 608 35,000  Level FlightAware ADS-B
Thu 03:37:57 AM 50.4150 4.3020 118° Southeast 526 605 35,000  Level FlightAware ADS-B
Thu 03:38:34 AM 50.3730 4.4280 118° Southeast 525 604 35,000  Level FlightAware ADS-B
Thu 03:39:10 AM 50.3330 4.5480 118° Southeast 525 604 35,000  Level FlightAware ADS-B
Thu 03:39:42 AM 50.2960 4.6550 118° Southeast 524 603 35,000  Level FlightAware ADS-B
Thu 03:40:18 AM 50.2560 4.7750 117° Southeast 522 601 35,000  Level FlightAware ADS-B
Thu 03:40:58 AM 50.2110 4.9080 118° Southeast 521 600 35,000  Level FlightAware ADS-B
Thu 03:41:37 AM 50.1650 5.0430 118° Southeast 518 596 35,000  Level FlightAware ADS-B
Thu 03:42:09 AM 50.1290 5.1480 118° Southeast 517 595 35,000  Level FlightAware ADS-B
Thu 03:42:44 AM 50.0900 5.2600 118° Southeast 516 594 35,000  Level FlightAware ADS-B
Thu 03:43:19 AM 50.0510 5.3760 118° Southeast 514 592 35,000  Level FlightAware ADS-B
Thu 03:43:56 AM 50.0100 5.4970 118° Southeast 514 592 35,000  Level FlightAware ADS-B
Thu 03:44:28 AM 49.9730 5.6030 118° Southeast 514 592 35,000  Level FlightAware ADS-B
Thu 03:45:05 AM 49.9320 5.7200 119° Southeast 515 593 35,000  Level FlightAware ADS-B
Thu 03:45:40 AM 49.8920 5.8350 118° Southeast 517 595 35,000  Level FlightAware ADS-B
Thu 03:46:16 AM 49.8510 5.9540 118° Southeast 518 596 35,000  Level FlightAware ADS-B
Thu 03:46:49 AM 49.8130 6.0610 119° Southeast 521 600 35,000  Level FlightAware ADS-B
Thu 03:47:23 AM 49.7730 6.1730 119° Southeast 523 602 35,000  Level FlightAware ADS-B
Thu 03:47:58 AM 49.7320 6.2880 119° Southeast 523 602 35,000  Level FlightAware ADS-B
Thu 03:48:35 AM 49.6920 6.4000 119° Southeast 523 602 35,000  Level FlightAware ADS-B
Thu 03:49:10 AM 49.6480 6.5230 119° Southeast 522 601 35,000  Level FlightAware ADS-B
Thu 03:49:47 AM 49.6050 6.6420 119° Southeast 521 600 35,000  Level FlightAware ADS-B
Thu 03:50:19 AM 49.5680 6.7430 119° Southeast 521 600 35,000  Level FlightAware ADS-B
Thu 03:50:56 AM 49.5250 6.8620 119° Southeast 521 600 35,000  Level FlightAware ADS-B
Thu 03:51:34 AM 49.4820 6.9790 119° Southeast 522 601 35,000  Level FlightAware ADS-B
Thu 03:52:12 AM 49.4370 7.1020 119° Southeast 523 602 35,000  Level FlightAware ADS-B
Thu 03:52:52 AM 49.3870 7.2370 120° Southeast 523 602 35,000  Level FlightAware ADS-B
Thu 03:53:28 AM 49.3450 7.3520 119° Southeast 524 603 35,000  Level FlightAware ADS-B
Thu 03:54:02 AM 49.3040 7.4620 120° Southeast 525 604 35,000  Level FlightAware ADS-B
Thu 03:54:37 AM 49.2600 7.5780 120° Southeast 521 600 35,000  Level FlightAware ADS-B
Thu 03:55:12 AM 49.2190 7.6860 120° Southeast 522 601 35,000  Level FlightAware ADS-B
Thu 03:55:47 AM 49.1750 7.8000 121° Southeast 523 602 35,000  Level FlightAware ADS-B
Thu 03:56:22 AM 49.1320 7.9130 120° Southeast 523 602 35,000  Level FlightAware ADS-B
Thu 03:56:57 AM 49.0890 8.0250 120° Southeast 524 603 35,000  Level FlightAware ADS-B
Thu 03:57:32 AM 49.0450 8.1360 121° Southeast 525 604 35,000  Level FlightAware ADS-B
Thu 03:58:07 AM 49.0020 8.2480 120° Southeast 531 611 35,000  Level FlightAware ADS-B
Thu 03:58:42 AM 48.9580 8.3600 121° Southeast 532 612 35,000  Level FlightAware ADS-B
Thu 03:59:17 AM 48.9130 8.4750 121° Southeast 534 615 35,000  Level FlightAware ADS-B
Thu 03:59:53 AM 48.8690 8.5870 121° Southeast 535 616 35,000  Level FlightAware ADS-B
Thu 04:00:27 AM 48.8250 8.6960 121° Southeast 537 618 35,000  Level FlightAware ADS-B
Thu 04:01:10 AM 48.7670 8.8410 121° Southeast 539 620 35,000  Level FlightAware ADS-B
Thu 04:01:45 AM 48.7220 8.9530 121° Southeast 540 621 35,000  Level FlightAware ADS-B
Thu 04:02:21 AM 48.6770 9.0650 121° Southeast 541 623 35,000  Level FlightAware ADS-B
Thu 04:02:55 AM 48.6290 9.1820 122° Southeast 542 624 35,000  Level FlightAware ADS-B
Thu 04:03:30 AM 48.5830 9.2930 122° Southeast 543 625 35,000  Level FlightAware ADS-B
Thu 04:04:07 AM 48.5340 9.4110 122° Southeast 545 627 35,000  Level FlightAware ADS-B
Thu 04:04:43 AM 48.4830 9.5230 124° Southeast 546 628 35,000  Level FlightAware ADS-B
Thu 04:05:03 AM 48.4430 9.5740 140° Southeast 545 627 35,000  Level FlightAware ADS-B
Thu 04:05:36 AM 48.3730 9.6350 150° Southeast 544 626 35,000  Level FlightAware ADS-B
Thu 04:06:11 AM 48.2950 9.6970 152° Southeast 544 626 35,000  Level FlightAware ADS-B
Thu 04:06:48 AM 48.2120 9.7590 154° Southeast 545 627 35,000  Level FlightAware ADS-B
Thu 04:07:23 AM 48.1350 9.8200 152° Southeast 545 627 35,000  Level FlightAware ADS-B
Thu 04:07:55 AM 48.0630 9.8780 152° Southeast 544 626 35,000  Level FlightAware ADS-B
Thu 04:08:32 AM 47.9800 9.9450 152° Southeast 545 627 35,000  Level FlightAware ADS-B
Thu 04:09:06 AM 47.9060 10.0040 152° Southeast 544 626 35,000  Level FlightAware ADS-B
Thu 04:09:41 AM 47.8280 10.0670 152° Southeast 544 626 35,000  Level FlightAware ADS-B
Thu 04:10:17 AM 47.7500 10.1290 152° Southeast 544 626 35,000  Level FlightAware ADS-B
Thu 04:10:52 AM 47.6730 10.1910 152° Southeast 543 625 35,000  Level FlightAware ADS-B
Thu 04:11:07 AM 47.6450 10.2140 151° Southeast 543 625 35,000  Level FlightAware ADS-B
Thu 04:11:57 AM 47.5310 10.3050 152° Southeast 544 626 35,000  Level FlightAware ADS-B
Thu 04:12:31 AM 47.4540 10.3660 152° Southeast 544 626 35,000  Level FlightAware ADS-B
Thu 04:13:08 AM 47.3680 10.4340 152° Southeast 544 626 35,000  Level FlightAware ADS-B
Thu 04:13:45 AM 47.2870 10.4980 152° Southeast 545 627 35,000  Level FlightAware ADS-B
Thu 04:14:18 AM 47.2140 10.5560 152° Southeast 545 627 35,000  Level FlightAware ADS-B
Thu 04:14:53 AM 47.1370 10.6160 152° Southeast 545 627 35,000  Level FlightAware ADS-B
Thu 04:15:30 AM 47.0530 10.6800 153° Southeast 545 627 35,000  Level FlightAware ADS-B
Thu 04:16:00 AM 46.9840 10.7270 155° Southeast 543 625 35,000  Level FlightAware ADS-B
Thu 04:16:38 AM 46.8970 10.7780 158° South 541 623 35,000  Level FlightAware ADS-B
Thu 04:17:12 AM 46.8180 10.8230 159° South 541 623 35,000  Level FlightAware ADS-B
Thu 04:17:41 AM 46.7530 10.8770 150° Southeast 552 635 35,000  Level FlightAware ADS-B
Thu 04:18:10 AM 46.6960 10.9510 138° Southeast 556 640 35,000  Level FlightAware ADS-B
Thu 04:18:46 AM 46.6350 11.0480 132° Southeast 557 641 35,000  Level FlightAware ADS-B
Thu 04:19:18 AM 46.5800 11.1380 132° Southeast 557 641 35,000  Level FlightAware ADS-B
Thu 04:19:51 AM 46.5260 11.2260 132° Southeast 558 642 35,000  Level FlightAware ADS-B
Thu 04:20:36 AM 46.4510 11.3470 132° Southeast 558 642 35,000  Level FlightAware ADS-B
Thu 04:21:08 AM 46.3920 11.4460 131° Southeast 559 643 35,000  Level FlightAware ADS-B
Thu 04:21:47 AM 46.3300 11.5540 130° Southeast 561 646 35,000  Level FlightAware ADS-B
Thu 04:22:23 AM 46.2680 11.6590 130° Southeast 563 648 35,000  Level FlightAware ADS-B
Thu 04:22:54 AM 46.2170 11.7460 130° Southeast 563 648 35,000  Level FlightAware ADS-B
Thu 04:23:28 AM 46.1560 11.8480 131° Southeast 565 650 35,000  Level FlightAware ADS-B
Thu 04:24:00 AM 46.1060 11.9310 131° Southeast 566 651 35,000  Level FlightAware ADS-B
Thu 04:24:37 AM 46.0410 12.0400 131° Southeast 566 651 35,000  Level FlightAware ADS-B
Thu 04:25:16 AM 45.9730 12.1520 131° Southeast 565 650 35,000  Level FlightAware ADS-B
Thu 04:25:52 AM 45.9120 12.2520 131° Southeast 565 650 35,000  Level FlightAware ADS-B
Thu 04:26:26 AM 45.8550 12.3470 131° Southeast 567 652 35,000  Level FlightAware ADS-B
Thu 04:27:02 AM 45.7910 12.4520 131° Southeast 566 651 35,000  Level FlightAware ADS-B
Thu 04:27:37 AM 45.7320 12.5480 131° Southeast 567 652 35,000  Level FlightAware ADS-B
Thu 04:28:10 AM 45.6800 12.6340 131° Southeast 568 654 35,000  Level FlightAware ADS-B
Thu 04:28:46 AM 45.6170 12.7540 127° Southeast 564 649 35,000  Level FlightAware ADS-B
Thu 04:29:21 AM 45.5670 12.8540 126° Southeast 569 655 35,000  Level FlightAware ADS-B
Thu 04:29:57 AM 45.5080 12.9680 126° Southeast 570 656 35,000  Level FlightAware ADS-B
Thu 04:30:26 AM 45.4640 13.0520 127° Southeast 570 656 35,000  Level FlightAware ADS-B
Thu 04:31:02 AM 45.4090 13.1570 127° Southeast 569 655 35,000  Level FlightAware ADS-B
Thu 04:31:42 AM 45.3450 13.2780 127° Southeast 567 652 35,000  Level FlightAware ADS-B
Thu 04:32:12 AM 45.2970 13.3680 127° Southeast 562 647 35,000  Level FlightAware ADS-B
Thu 04:32:51 AM 45.2360 13.4820 127° Southeast 567 652 35,000  Level FlightAware ADS-B
Thu 04:33:27 AM 45.1770 13.5920 127° Southeast 563 648 35,000  Level FlightAware ADS-B
Thu 04:34:08 AM 45.1150 13.7090 127° Southeast 565 650 35,000  Level FlightAware ADS-B
Thu 04:34:42 AM 45.0570 13.8170 127° Southeast 566 651 35,000  Level FlightAware ADS-B
Thu 04:35:11 AM 45.0120 13.9010 127° Southeast 572 658 35,000  Level FlightAware ADS-B
Thu 04:35:47 AM 44.9550 14.0120 126° Southeast 573 659 35,000  Level FlightAware ADS-B
Thu 04:36:21 AM 44.9070 14.1070 125° Southeast 574 661 35,000  Level FlightAware ADS-B
Thu 04:37:02 AM 44.8390 14.2380 126° Southeast 574 661 35,000  Level FlightAware ADS-B
Thu 04:37:41 AM 44.7810 14.3510 126° Southeast 575 662 35,000  Level FlightAware ADS-B
Thu 04:38:13 AM 44.7300 14.4470 127° Southeast 575 662 35,000  Level FlightAware ADS-B
Thu 04:38:47 AM 44.6710 14.5580 127° Southeast 572 658 35,000  Level FlightAware ADS-B
Thu 04:39:22 AM 44.6150 14.6640 127° Southeast 572 658 35,000  Level FlightAware ADS-B
Thu 04:39:55 AM 44.5630 14.7610 127° Southeast 574 661 35,000  Level FlightAware ADS-B
Thu 04:40:35 AM 44.5040 14.8710 127° Southeast 573 659 35,000  Level FlightAware ADS-B
Thu 04:41:15 AM 44.4340 15.0020 127° Southeast 574 661 35,000  Level FlightAware ADS-B
Thu 04:41:56 AM 44.3700 15.1190 127° Southeast 574 661 35,000  Level FlightAware ADS-B
Thu 04:42:43 AM 44.2930 15.2610 127° Southeast 574 661 35,000  Level FlightAware ADS-B
Thu 04:43:23 AM 44.2280 15.3810 127° Southeast 580 667 35,000  Level FlightAware ADS-B
Thu 04:43:58 AM 44.1720 15.4830 127° Southeast 582 670 35,000  Level FlightAware ADS-B
Thu 04:44:28 AM 44.1250 15.5680 128° Southeast 582 670 35,000  Level FlightAware ADS-B
Thu 04:45:04 AM 44.0690 15.6710 127° Southeast 583 671 35,000  Level FlightAware ADS-B
Thu 04:45:38 AM 44.0060 15.7840 128° Southeast 585 673 35,000  Level FlightAware ADS-B
Thu 04:46:13 AM 43.9490 15.8860 128° Southeast 581 669 35,000  Level FlightAware ADS-B
Thu 04:46:53 AM 43.8820 16.0050 128° Southeast 581 669 35,000  Level FlightAware ADS-B
Thu 04:47:28 AM 43.8240 16.1090 128° Southeast 581 669 35,000  Level FlightAware ADS-B
Thu 04:47:58 AM 43.7740 16.1970 128° Southeast 581 669 35,000  Level FlightAware ADS-B
Thu 04:48:33 AM 43.7170 16.2980 128° Southeast 582 670 35,000  Level FlightAware ADS-B
Thu 04:49:13 AM 43.6500 16.4160 128° Southeast 582 670 35,000  Level FlightAware ADS-B
Thu 04:49:48 AM 43.5890 16.5220 128° Southeast 579 666 35,000  Level FlightAware ADS-B
Thu 04:50:18 AM 43.5400 16.6100 128° Southeast 579 666 35,000  Level FlightAware ADS-B
Thu 04:50:58 AM 43.4730 16.7270 128° Southeast 577 664 35,000  Level FlightAware ADS-B
Thu 04:51:33 AM 43.4150 16.8290 128° Southeast 579 666 35,000  Level FlightAware ADS-B
Thu 04:52:03 AM 43.3650 16.9150 129° Southeast 580 667 35,000  Level FlightAware ADS-B
Thu 04:52:43 AM 43.2960 17.0340 129° Southeast 582 670 35,000  Level FlightAware ADS-B
Thu 04:53:14 AM 43.2450 17.1210 129° Southeast 581 669 35,000  Level FlightAware ADS-B
Thu 04:53:48 AM 43.1860 17.2220 129° Southeast 580 667 35,000  Level FlightAware ADS-B
Thu 04:54:28 AM 43.1200 17.3350 129° Southeast 588 677 35,000  Level FlightAware ADS-B
Thu 04:55:03 AM 43.0610 17.4360 129° Southeast 589 678 35,000  Level FlightAware ADS-B
Thu 04:55:38 AM 43.0010 17.5380 129° Southeast 589 678 35,000  Level FlightAware ADS-B
Thu 04:56:08 AM 42.9510 17.6230 129° Southeast 588 677 35,000  Level FlightAware ADS-B
Thu 04:56:46 AM 42.8840 17.7380 128° Southeast 589 678 35,000  Level FlightAware ADS-B
Thu 04:57:22 AM 42.8210 17.8440 129° Southeast 590 679 35,000  Level FlightAware ADS-B
Thu 04:57:58 AM 42.7580 17.9490 129° Southeast 592 681 35,000  Level FlightAware ADS-B
Thu 04:58:31 AM 42.7030 18.0400 129° Southeast 589 678 35,000  Level FlightAware ADS-B
Thu 04:59:06 AM 42.6430 18.1410 129° Southeast 590 679 35,000  Level FlightAware ADS-B
Thu 04:59:41 AM 42.5880 18.2290 130° Southeast 588 677 35,000  Level FlightAware ADS-B
Thu 05:00:18 AM 42.5110 18.3340 135° Southeast 587 676 35,000  Level FlightAware ADS-B
Thu 05:00:57 AM 42.4320 18.4390 136° Southeast 587 676 35,000  Level FlightAware ADS-B
Thu 05:01:32 AM 42.3630 18.5310 135° Southeast 592 681 35,000  Level FlightAware ADS-B
Thu 05:02:10 AM 42.2860 18.6350 135° Southeast 593 682 35,000  Level FlightAware ADS-B
Thu 05:02:44 AM 42.2210 18.7220 135° Southeast 593 682 35,000  Level FlightAware ADS-B
Thu 05:03:20 AM 42.1520 18.8150 135° Southeast 593 682 35,000  Level FlightAware ADS-B
Thu 05:03:52 AM 42.0890 18.9000 135° Southeast 592 681 35,000  Level FlightAware ADS-B
Thu 05:04:22 AM 42.0300 18.9780 136° Southeast 593 682 35,000  Level FlightAware ADS-B
Thu 05:05:06 AM 41.9440 19.0930 135° Southeast 593 682 35,000  Level FlightAware ADS-B
Thu 05:05:45 AM 41.8790 19.1800 135° Southeast 593 682 35,000  Level FlightAware ADS-B
Thu 05:06:20 AM 41.8000 19.2830 136° Southeast 593 682 35,000  Level FlightAware ADS-B
Thu 05:07:00 AM 41.7180 19.3790 139° Southeast 592 681 35,000  Level FlightAware ADS-B
Thu 05:07:32 AM 41.6520 19.4540 140° Southeast 592 681 35,000  Level FlightAware ADS-B
Thu 05:08:08 AM 41.5740 19.5410 140° Southeast 592 681 35,000  Level FlightAware ADS-B
Thu 05:08:40 AM 41.5070 19.6160 140° Southeast 592 681 35,000  Level FlightAware ADS-B
Thu 05:09:16 AM 41.4330 19.7010 139° Southeast 593 682 35,000  Level FlightAware ADS-B
Thu 05:09:52 AM 41.3650 19.7890 136° Southeast 595 685 35,000  Level FlightAware ADS-B
Thu 05:10:28 AM 41.2920 19.8870 135° Southeast 594 684 35,000  Level FlightAware ADS-B
Thu 05:11:00 AM 41.2300 19.9700 135° Southeast 594 684 35,000  Level FlightAware ADS-B
Thu 05:11:38 AM 41.1560 20.0690 135° Southeast 593 682 35,000  Level FlightAware ADS-B
Thu 05:12:10 AM 41.0970 20.1480 135° Southeast 594 684 35,000  Level FlightAware ADS-B
Thu 05:12:44 AM 41.0290 20.2370 135° Southeast 594 684 35,000  Level FlightAware ADS-B
Thu 05:13:22 AM 40.9550 20.3340 135° Southeast 596 686 35,000  Level FlightAware ADS-B
Thu 05:13:54 AM 40.8940 20.4140 135° Southeast 595 685 35,000  Level FlightAware ADS-B
Thu 05:14:31 AM 40.8210 20.5090 135° Southeast 594 684 35,000  Level FlightAware ADS-B
Thu 05:15:05 AM 40.7540 20.5960 135° Southeast 594 684 35,000  Level FlightAware ADS-B
Thu 05:15:40 AM 40.6850 20.6850 136° Southeast 593 682 35,000  Level FlightAware ADS-B
Thu 05:16:14 AM 40.6180 20.7710 136° Southeast 594 684 35,000  Level FlightAware ADS-B
Thu 05:16:51 AM 40.5450 20.8630 136° Southeast 594 684 35,000  Level FlightAware ADS-B
Thu 05:17:26 AM 40.4740 20.9510 137° Southeast 594 684 35,000  Level FlightAware ADS-B
Thu 05:18:02 AM 40.4010 21.0350 139° Southeast 593 682 35,000  Level FlightAware ADS-B
Thu 05:18:34 AM 40.3310 21.1140 139° Southeast 593 682 35,000  Level FlightAware ADS-B
Thu 05:19:10 AM 40.2570 21.1990 139° Southeast 593 682 35,000  Level FlightAware ADS-B
Thu 05:19:46 AM 40.1830 21.2830 139° Southeast 591 680 35,000  Level FlightAware ADS-B
Thu 05:20:18 AM 40.1170 21.3580 139° Southeast 590 679 35,000  Level FlightAware ADS-B
Thu 05:20:56 AM 40.0390 21.4460 139° Southeast 589 678 35,000  Level FlightAware ADS-B
Thu 05:21:32 AM 39.9650 21.5290 139° Southeast 588 677 35,000  Level FlightAware ADS-B
Thu 05:22:04 AM 39.8990 21.6040 139° Southeast 587 676 35,000  Level FlightAware ADS-B
Thu 05:22:42 AM 39.8210 21.6910 139° Southeast 586 674 35,000  Level FlightAware ADS-B
Thu 05:23:18 AM 39.7470 21.7740 139° Southeast 586 674 35,000  Level FlightAware ADS-B
Thu 05:23:50 AM 39.6820 21.8460 140° Southeast 584 672 35,000  Level FlightAware ADS-B
Thu 05:24:26 AM 39.6080 21.9290 139° Southeast 585 673 35,000  Level FlightAware ADS-B
Thu 05:25:02 AM 39.5330 22.0120 140° Southeast 584 672 35,000  Level FlightAware ADS-B
Thu 05:25:38 AM 39.4600 22.0930 139° Southeast 584 672 35,000  Level FlightAware ADS-B
Thu 05:26:10 AM 39.3930 22.1670 140° Southeast 583 671 35,000  Level FlightAware ADS-B
Thu 05:26:46 AM 39.3190 22.2490 139° Southeast 583 671 35,000  Level FlightAware ADS-B
Thu 05:27:22 AM 39.2470 22.3280 140° Southeast 583 671 35,000  Level FlightAware ADS-B
Thu 05:27:55 AM 39.1790 22.4020 140° Southeast 583 671 35,000  Level FlightAware ADS-B
Thu 05:28:30 AM 39.1050 22.4820 140° Southeast 583 671 35,000  Level FlightAware ADS-B
Thu 05:29:07 AM 39.0330 22.5600 140° Southeast 583 671 35,000  Level FlightAware ADS-B
Thu 05:29:43 AM 38.9570 22.6420 140° Southeast 582 670 35,000  Level FlightAware ADS-B
Thu 05:30:21 AM 38.8790 22.7260 140° Southeast 580 667 35,000  Level FlightAware ADS-B
Thu 05:30:56 AM 38.8060 22.8040 140° Southeast 580 667 35,000  Level FlightAware ADS-B
Thu 05:31:34 AM 38.7260 22.8890 140° Southeast 580 667 35,000  Level FlightAware ADS-B
Thu 05:32:05 AM 38.6620 22.9560 141° Southeast 581 669 35,000  Level FlightAware ADS-B
Thu 05:32:42 AM 38.5860 23.0370 140° Southeast 581 669 35,000  Level FlightAware ADS-B
Thu 05:33:17 AM 38.5130 23.1150 140° Southeast 582 670 35,000  Level FlightAware ADS-B
Thu 05:33:51 AM 38.4440 23.1880 140° Southeast 583 671 35,000  Level FlightAware ADS-B
Thu 05:34:28 AM 38.3660 23.2710 140° Southeast 582 670 35,000  Level FlightAware ADS-B
Thu 05:35:02 AM 38.2950 23.3460 140° Southeast 580 667 35,000  Level FlightAware ADS-B
Thu 05:35:39 AM 38.2200 23.4260 140° Southeast 580 667 35,000  Level FlightAware ADS-B
Thu 05:36:12 AM 38.1500 23.4980 141° Southeast 580 667 35,000  Level FlightAware ADS-B
Thu 05:36:47 AM 38.0780 23.5730 141° Southeast 580 667 35,000  Level FlightAware ADS-B
Thu 05:37:21 AM 38.0060 23.6470 141° Southeast 582 670 35,000  Level FlightAware ADS-B
Thu 05:37:59 AM 37.9280 23.7290 140° Southeast 585 673 35,000  Level FlightAware ADS-B
Thu 05:38:31 AM 37.8660 23.8070 135° Southeast 590 679 35,000  Level FlightAware ADS-B
Thu 05:39:07 AM 37.8030 23.9010 130° Southeast 592 681 35,000  Level FlightAware ADS-B
Thu 05:39:43 AM 37.7390 23.9970 130° Southeast 592 681 35,000  Level FlightAware ADS-B
Thu 05:40:20 AM 37.6730 24.0970 130° Southeast 592 681 35,000  Level FlightAware ADS-B
Thu 05:40:50 AM 37.6200 24.1760 130° Southeast 592 681 35,000  Level FlightAware ADS-B
Thu 05:41:23 AM 37.5640 24.2640 129° Southeast 596 686 35,000  Level FlightAware ADS-B
Thu 05:42:03 AM 37.5010 24.3820 124° Southeast 596 686 35,000  Level FlightAware ADS-B
Thu 05:42:38 AM 37.4510 24.4820 122° Southeast 595 685 35,000  Level FlightAware ADS-B
Thu 05:43:13 AM 37.3990 24.5860 122° Southeast 596 686 35,000  Level FlightAware ADS-B
Thu 05:43:46 AM 37.3530 24.6780 122° Southeast 596 686 35,000  Level FlightAware ADS-B
Thu 05:44:23 AM 37.2970 24.7910 122° Southeast 596 686 35,000  Level FlightAware ADS-B
Thu 05:44:59 AM 37.2460 24.8920 122° Southeast 596 686 35,000  Level FlightAware ADS-B
Thu 05:45:32 AM 37.1950 24.9920 123° Southeast 596 686 35,000  Level FlightAware ADS-B
Thu 05:46:07 AM 37.1450 25.0920 122° Southeast 597 687 35,000  Level FlightAware ADS-B
Thu 05:46:43 AM 37.0910 25.1980 123° Southeast 598 688 35,000  Level FlightAware ADS-B
Thu 05:47:20 AM 37.0390 25.3000 123° Southeast 598 688 35,000  Level FlightAware ADS-B
Thu 05:47:52 AM 36.9890 25.3970 123° Southeast 597 687 35,000  Level FlightAware ADS-B
Thu 05:48:25 AM 36.9400 25.4920 123° Southeast 597 687 35,000  Level FlightAware ADS-B
Thu 05:49:04 AM 36.8800 25.6080 123° Southeast 597 687 35,000  Level FlightAware ADS-B
Thu 05:49:39 AM 36.8300 25.7050 123° Southeast 596 686 35,000  Level FlightAware ADS-B
Thu 05:50:09 AM 36.7860 25.7890 123° Southeast 596 686 35,000  Level FlightAware ADS-B
Thu 05:50:48 AM 36.7230 25.9110 123° Southeast 596 686 35,000  Level FlightAware ADS-B
Thu 05:51:23 AM 36.6700 26.0130 123° Southeast 596 686 35,000  Level FlightAware ADS-B
Thu 05:51:57 AM 36.6200 26.1090 123° Southeast 595 685 35,000  Level FlightAware ADS-B
Thu 05:52:33 AM 36.5670 26.2160 122° Southeast 596 686 35,000  Level FlightAware ADS-B
Thu 05:53:09 AM 36.5220 26.3240 117° Southeast 597 687 35,000  Level FlightAware ADS-B
Thu 05:53:41 AM 36.4840 26.4230 115° Southeast 599 689 35,000  Level FlightAware ADS-B
Thu 05:54:17 AM 36.4410 26.5330 116° Southeast 596 686 35,000  Level FlightAware ADS-B
Thu 05:54:53 AM 36.3970 26.6450 116° Southeast 597 687 35,000  Level FlightAware ADS-B
Thu 05:55:27 AM 36.3550 26.7510 116° Southeast 594 684 35,000  Level FlightAware ADS-B
Thu 05:56:01 AM 36.3150 26.8500 117° Southeast 593 682 35,000  Level FlightAware ADS-B
Thu 05:56:35 AM 36.2750 26.9490 117° Southeast 589 678 35,000  Level FlightAware ADS-B
Thu 05:57:15 AM 36.2230 27.0750 117° Southeast 592 681 35,000  Level FlightAware ADS-B
Thu 05:57:55 AM 36.1730 27.1950 117° Southeast 592 681 35,000  Level FlightAware ADS-B
Thu 05:58:27 AM 36.1330 27.2900 118° Southeast 592 681 35,000  Level FlightAware ADS-B
Thu 05:59:04 AM 36.0870 27.4050 116° Southeast 591 680 35,000  Level FlightAware ADS-B
Thu 05:59:39 AM 36.0430 27.5110 117° Southeast 590 679 35,000  Level FlightAware ADS-B
Thu 06:00:14 AM 36.0000 27.6150 117° Southeast 589 678 35,000  Level FlightAware ADS-B
Thu 06:00:50 AM 35.9500 27.7220 120° Southeast 588 677 35,000  Level FlightAware ADS-B
Thu 06:01:26 AM 35.8950 27.8200 125° Southeast 588 677 35,000  Level FlightAware ADS-B
Thu 06:01:58 AM 35.8440 27.9090 125° Southeast 587 676 35,000  Level FlightAware ADS-B
Thu 06:02:34 AM 35.7880 28.0060 125° Southeast 586 674 35,000  Level FlightAware ADS-B
Thu 06:03:10 AM 35.7310 28.1050 125° Southeast 585 673 35,000  Level FlightAware ADS-B
Thu 06:03:42 AM 35.6820 28.1890 126° Southeast 584 672 35,000  Level FlightAware ADS-B
Thu 06:04:15 AM 35.6300 28.2790 125° Southeast 482 555 35,000  Level FlightAware ADS-B
Thu 06:04:56 AM 35.5650 28.3900 126° Southeast 581 669 35,000  Level FlightAware ADS-B
Thu 06:05:28 AM 35.5150 28.4750 126° Southeast 580 667 35,000  Level FlightAware ADS-B
Thu 06:06:04 AM 35.4590 28.5710 126° Southeast 580 667 35,000  Level FlightAware ADS-B
Thu 06:06:40 AM 35.4010 28.6690 126° Southeast 578 665 35,000  Level FlightAware ADS-B
Thu 06:07:16 AM 35.3450 28.7640 126° Southeast 577 664 35,000  Level FlightAware ADS-B
Thu 06:07:48 AM 35.2970 28.8460 126° Southeast 578 665 35,000  Level FlightAware ADS-B
Thu 06:08:24 AM 35.2390 28.9430 126° Southeast 576 663 35,000  Level FlightAware ADS-B
Thu 06:09:00 AM 35.1820 29.0370 127° Southeast 575 662 35,000  Level FlightAware ADS-B
Thu 06:09:36 AM 35.1250 29.1320 126° Southeast 575 662 35,000  Level FlightAware ADS-B
Thu 06:10:08 AM 35.0790 29.2090 126° Southeast 575 662 35,000  Level FlightAware ADS-B
Thu 06:10:46 AM 35.0150 29.3150 126° Southeast 574 661 35,000  Level FlightAware ADS-B
Thu 06:11:40 AM 34.9430 29.4360 126° Southeast 574 661 35,000  Level FlightAware ADS-B
Thu 06:12:16 AM 34.8950 29.5160 126° Southeast 574 661 35,000  Level FlightAware ADS-B
Thu 06:12:59 AM 34.8140 29.6480 127° Southeast 573 659 35,000  Level FlightAware ADS-B
Thu 06:13:29 AM 34.7620 29.7330 127° Southeast 574 661 35,000  Level FlightAware ADS-B
Thu 06:14:04 AM 34.7040 29.8280 127° Southeast 573 659 35,000  Level FlightAware ADS-B
Thu 06:14:40 AM 34.6580 29.9040 126° Southeast 573 659 35,000  Level FlightAware ADS-B
Thu 06:15:16 AM 34.6110 29.9840 126° Southeast 573 659 35,000  Level FlightAware ADS-B
Thu 06:15:45 AM 34.5620 30.0950 118° Southeast 35,000  Level FlightAware ADS-B
Thu 06:16:20 AM 34.5150 30.1980 119° Southeast 600 690 35,000  Level FlightAware ADS-B
Thu 06:16:55 AM 34.4680 30.2990 119° Southeast 573 659 35,000  Level FlightAware ADS-B
Thu 06:17:30 AM 34.4240 30.3890 121° Southeast 572 658 35,000  Level FlightAware ADS-B
Thu 06:18:05 AM 34.3740 30.4910 121° Southeast 571 657 35,000  Level FlightAware ADS-B
Thu 06:18:41 AM 34.3270 30.5860 121° Southeast 570 656 35,000  Level FlightAware ADS-B
Thu 06:19:15 AM 34.2810 30.6810 120° Southeast 568 654 35,000  Level FlightAware ADS-B
Thu 06:19:51 AM 34.2330 30.7790 121° Southeast 567 652 35,000  Level FlightAware ADS-B
Thu 06:20:26 AM 34.1840 30.8770 121° Southeast 561 646 35,000  Level FlightAware ADS-B
Thu 06:21:02 AM 34.1390 30.9710 120° Southeast 560 644 35,000  Level FlightAware ADS-B
Thu 06:21:42 AM 34.0850 31.0820 120° Southeast 556 640 35,000  Level FlightAware ADS-B
Thu 06:22:17 AM 34.0400 31.1740 121° Southeast 554 638 35,000  Level FlightAware ADS-B
Thu 06:22:52 AM 33.9930 31.2690 121° Southeast 553 636 35,000  Level FlightAware ADS-B
Thu 06:23:27 AM 33.9480 31.3610 121° Southeast 551 634 35,000  Level FlightAware ADS-B
Thu 06:24:02 AM 33.9020 31.4540 121° Southeast 550 633 35,000  Level FlightAware ADS-B
Thu 06:24:33 AM 33.8620 31.5360 120° Southeast 548 631 35,000  Level FlightAware ADS-B
Thu 06:25:18 AM 33.8020 31.6560 121° Southeast 546 628 35,000  Level FlightAware ADS-B
Thu 06:25:53 AM 33.7570 31.7470 121° Southeast 546 628 35,000  Level FlightAware ADS-B
Thu 06:26:28 AM 33.7100 31.8400 121° Southeast 545 627 35,000 -254 Level FlightAware ADS-B
Thu 06:27:04 AM 33.6670 31.9270 121° Southeast 538 619 34,700 -761 Descending FlightAware ADS-B
Thu 06:27:39 AM 33.6190 32.0210 121° Southeast 526 605 34,100 -1,029 Descending FlightAware ADS-B
Thu 06:28:14 AM 33.5760 32.1060 121° Southeast 514 592 33,500 -943 Descending FlightAware ADS-B
Thu 06:28:49 AM 33.5320 32.1930 121° Southeast 504 580 33,000 -400 Descending FlightAware ADS-B
Thu 06:29:29 AM 33.4850 32.2850 121° Southeast 513 590 33,000  Level FlightAware ADS-B
Thu 06:30:06 AM 33.4410 32.3710 121° Southeast 522 601 33,000  Level FlightAware ADS-B
Thu 06:30:42 AM 33.3940 32.4610 122° Southeast 523 602 33,000  Level FlightAware ADS-B
Thu 06:31:22 AM 33.3410 32.5640 122° Southeast 524 603 33,000 -320 Level FlightAware ADS-B
Thu 06:31:57 AM 33.2970 32.6500 121° Southeast 511 588 32,600 -771 Descending FlightAware ADS-B
Thu 06:32:32 AM 33.2540 32.7330 122° Southeast 500 575 32,100 -1,015 Descending FlightAware ADS-B
Thu 06:33:02 AM 33.2190 32.7990 122° Southeast 495 570 31,500 -1,333 Descending FlightAware ADS-B
Thu 06:33:44 AM 33.1650 32.9020 122° Southeast 490 564 30,500 -1,275 Descending FlightAware ADS-B
Thu 06:34:22 AM 33.1220 32.9840 122° Southeast 487 560 29,800 -1,397 Descending FlightAware ADS-B
Thu 06:34:57 AM 33.0830 33.0600 121° Southeast 478 550 28,800 -2,000 Descending FlightAware ADS-B
Thu 06:35:37 AM 33.0360 33.1480 122° Southeast 470 541 27,300 -1,154 Descending FlightAware ADS-B
Thu 06:36:15 AM 32.9990 33.2190 122° Southeast 470 541 27,300 -1,171 Level FlightAware ADS-B
Thu 06:36:59 AM 32.9460 33.3190 122° Southeast 453 521 25,700 -3,158 Descending FlightAware ADS-B
Thu 06:37:31 AM 32.9070 33.3940 122° Southeast 434 499 23,300 -3,491 Descending FlightAware ADS-B
Thu 06:37:54 AM 32.8900 33.4470 111° Southeast 433 498 22,500 -1,875 Descending FlightAware ADS-B
Thu 06:38:19 AM 32.8850 33.5010 96° East 427 491 21,800 -1,714 Descending FlightAware ADS-B
Thu 06:38:50 AM 32.8820 33.5760 93° East 417 480 20,900 -1,636 Descending FlightAware ADS-B
Thu 06:39:25 AM 32.8780 33.6580 93° East 405 466 20,000 -1,644 Descending FlightAware ADS-B
Thu 06:40:03 AM 32.8750 33.7420 92° East 406 467 18,900 -1,703 Descending FlightAware ADS-B
Thu 06:40:39 AM 32.8720 33.8240 92° East 409 471 17,900 -1,588 Descending FlightAware ADS-B
Thu 06:41:11 AM 32.8710 33.8920 91° East 400 460 17,100 -1,545 Descending FlightAware ADS-B
Thu 06:41:45 AM 32.8690 33.9670 92° East 389 448 16,200 -1,500 Descending FlightAware ADS-B
Thu 06:42:15 AM 32.8660 34.0310 93° East 378 435 15,500 -1,535 Descending FlightAware ADS-B
Thu 06:42:28 AM 32.8590 34.0560 108° East 371 427 15,100 -1,655 Descending FlightAware ADS-B
Thu 06:42:44 AM 32.8450 34.0830 122° Southeast 361 415 14,700 -1,071 Descending FlightAware ADS-B
Thu 06:42:56 AM 32.8310 34.0990 136° Southeast 345 397 14,600 -643 Descending FlightAware ADS-B
Thu 06:43:12 AM 32.8080 34.1150 150° Southeast 348 400 14,400 -1,000 Descending FlightAware ADS-B
Thu 06:43:26 AM 32.7880 34.1220 164° South 346 398 14,100 -1,138 Descending FlightAware ADS-B
Thu 06:44:10 AM 32.7170 34.1270 177° South 338 389 13,300 -816 Descending FlightAware ADS-B
Thu 06:45:09 AM 32.6310 34.1320 177° South 336 387 12,700 -1,063 Descending FlightAware ADS-B
Thu 06:45:46 AM 32.5690 34.1340 178° South 329 379 11,600 -1,529 Descending FlightAware ADS-B
Thu 06:46:00 AM 32.5470 34.1390 169° South 326 375 11,400 -800 Descending FlightAware ADS-B
Thu 06:46:16 AM 32.5250 34.1480 161° South 325 374 11,200 -1,029 Descending FlightAware ADS-B
Thu 06:46:35 AM 32.5020 34.1680 144° Southeast 323 372 10,800 -1,071 Descending FlightAware ADS-B
Thu 06:47:12 AM 32.4630 34.2100 138° Southeast 312 359 10,200 -1,179 Descending FlightAware ADS-B
Thu 06:47:31 AM 32.4410 34.2330 139° Southeast 308 354 9,700 -1,263 Descending FlightAware ADS-B
Thu 06:47:50 AM 32.4230 34.2530 137° Southeast 304 350 9,400 -1,171 Descending FlightAware ADS-B
Thu 06:48:12 AM 32.3980 34.2770 141° Southeast 299 344 8,900 -1,304 Descending FlightAware ADS-B
Thu 06:48:36 AM 32.3720 34.3030 140° Southeast 294 338 8,400 -1,091 Descending FlightAware ADS-B
Thu 06:48:56 AM 32.3520 34.3230 140° Southeast 289 333 8,100 -453 Descending FlightAware ADS-B
Thu 06:49:29 AM 32.3240 34.3520 139° Southeast 287 330 8,000 -182 Descending FlightAware ADS-B
Thu 06:52:00 AM 32.0883 34.6918 125° Southeast  Level FlightAware Approximate
Thu 06:53:00 AM 32.0145 34.8426 125° Southeast  Level FlightAware Approximate
Thu 06:54:00 AM 32.0000 34.8667 125° Southeast  Level FlightAware Approximate
Thu 06:55:00 AM 32.0095 34.8769 125° Southeast  Level Estimated
Thu 06:56:00 AM 32.0095 34.8769 125° Southeast  Level Estimated
Thu 06:57:00 AM 32.0095 34.8769 125° Southeast  Level Estimated
Thu 06:58:00 AM 32.0095 34.8769 125° Southeast  Level Estimated
Thu 06:59:00 AM 32.0095 34.8769 125° Southeast  Level Estimated
Thu 07:00:00 AM 32.0095 34.8769 125° Southeast  Level Estimated

Login

Don't have an account? Register now (free) for customized features, flight alerts, and more!